Flight Track Log - Related Links

Times and Time Zones

All times are in EDT time to prevent confusion due to time zone crossing. See the DAL268 flight status page for this flight to view local times or setup timezone preferences in your user account.

Time Position Orientation Groundspeed Altitude Reporting Facility
EDT Latitude Longitude Course Direction KTS MPH feet Rate Location/Type
Wed 09:14:45 PM 40.6330 -73.7850 360° North  Level FlightAware ADS-B
Wed 09:17:00 PM 40.8670 -73.5664 37° Northeast  Level FlightAware Approximate
Wed 09:21:00 PM 40.8629 -73.5704 37° Northeast  Level FlightAware Approximate
Wed 09:25:00 PM 40.8866 -73.5468 37° Northeast  Level FlightAware Approximate
Wed 09:26:00 PM 40.9958 -73.4441 30° Northeast  Level FlightAware Approximate
Wed 09:33:00 PM 40.9243 -73.5090 37° Northeast  Level FlightAware Approximate
Wed 09:36:00 PM 40.9337 -73.5000 North  Level FlightAware Approximate
Wed 09:40:00 PM 40.9562 -73.4876 56° Northeast  Level FlightAware Approximate
Wed 09:44:15 PM 40.6240 -73.7810 217° Southwest  Level FlightAware ADS-B
Wed 09:46:59 PM 40.6330 -73.8050 302° West 160 184 255 Level FlightAware ADS-B
Wed 09:47:23 PM 40.6420 -73.8280 297° West 174 200 800 1,688 Climbing FlightAware ADS-B
Wed 09:48:03 PM 40.6280 -73.8700 246° West 204 235 1,800 1,200 Climbing FlightAware ADS-B
Wed 09:48:33 PM 40.6070 -73.8990 226° Southwest 241 277 2,200 682 Climbing FlightAware ADS-B
Wed 09:48:47 PM 40.5910 -73.9040 193° South 261 300 2,300 875 Climbing FlightAware ADS-B
Wed 09:49:21 PM 40.5560 -73.8760 149° Southeast 288 331 2,900 1,524 Climbing FlightAware ADS-B
Wed 09:49:50 PM 40.5370 -73.8290 118° Southeast 298 343 3,900 2,000 Climbing FlightAware ADS-B
Wed 09:50:21 PM 40.5220 -73.7780 111° Southeast 305 351 4,900 1,920 Climbing FlightAware ADS-B
Wed 09:51:05 PM 40.5520 -73.7090 60° Northeast 304 350 6,300 2,087 Climbing FlightAware ADS-B
Wed 09:51:30 PM 40.5790 -73.6800 39° Northeast 308 354 7,300 2,318 Climbing FlightAware ADS-B
Wed 09:51:49 PM 40.6010 -73.6560 40° Northeast 311 358 8,000 2,151 Climbing FlightAware ADS-B
Wed 09:52:23 PM 40.6420 -73.6210 33° Northeast 315 362 9,200 2,057 Climbing FlightAware ADS-B
Wed 09:52:59 PM 40.6900 -73.5900 26° Northeast 321 369 10,400 1,468 Climbing FlightAware ADS-B
Wed 09:53:57 PM 40.7730 -73.5370 26° Northeast 363 418 11,500 1,176 Climbing FlightAware ADS-B
Wed 09:54:41 PM 40.8432 -73.4920 26° Northeast 390 449 12,400 1,440 Climbing FlightAware ADS-B (KSNC)
Wed 09:55:12 PM 40.8928 -73.4599 26° Northeast 400 460 13,300 1,869 Climbing FlightAware ADS-B (KSNC)
Wed 09:55:42 PM 40.9434 -73.4270 26° Northeast 409 471 14,300 2,000 Climbing FlightAware ADS-B (KSNC)
Wed 09:56:12 PM 40.9916 -73.3959 26° Northeast 418 481 15,300 1,971 Climbing FlightAware ADS-B (KSNC)
Wed 09:56:52 PM 41.0636 -73.3495 26° Northeast 430 495 16,600 1,886 Climbing FlightAware ADS-B (KSNC)
Wed 09:57:22 PM 41.1208 -73.3123 26° Northeast 438 504 17,500 1,737 Climbing FlightAware ADS-B (KSNC)
Wed 09:58:08 PM 41.2046 -73.2543 28° Northeast 454 522 18,800 1,636 Climbing FlightAware ADS-B (KSNC)
Wed 09:58:39 PM 41.2538 -73.1974 41° Northeast 468 539 19,600 1,421 Climbing FlightAware ADS-B (KSNC)
Wed 09:59:24 PM 41.3159 -73.0947 51° Northeast 482 555 20,600 1,280 Climbing FlightAware ADS-B (KSNC)
Wed 09:59:54 PM 41.3587 -73.0226 52° Northeast 493 567 21,200 1,315 Climbing FlightAware ADS-B (KSNC)
Wed 10:00:37 PM 41.4124 -72.9316 52° Northeast 504 580 22,200 1,360 Climbing FlightAware ADS-B (KSNC)
Wed 10:01:09 PM 41.4630 -72.8458 52° Northeast 510 587 22,900 1,105 Climbing FlightAware ADS-B (KSNC)
Wed 10:01:53 PM 41.5270 -72.7370 52° Northeast 526 605 23,600 1,054 Climbing FlightAware ADS-B (KSNC)
Wed 10:02:23 PM 41.5762 -72.6546 51° Northeast 533 613 24,200 1,080 Climbing FlightAware ADS-B (KSNC)
Wed 10:02:43 PM 41.6019 -72.6003 58° Northeast 539 620 24,500 1,000 Climbing FlightAware ADS-B (KSNC)
Wed 10:03:17 PM 41.6400 -72.4958 64° Northeast 549 632 25,100 938 Climbing FlightAware ADS-B (KSNC)
Wed 10:03:47 PM 41.6726 -72.4076 64° Northeast 558 642 25,500 900 Climbing FlightAware ADS-B (KSNC)
Wed 10:04:17 PM 41.7095 -72.3112 63° Northeast 566 651 26,000 984 Climbing FlightAware ADS-B (KSNC)
Wed 10:04:48 PM 41.7454 -72.2183 63° Northeast 573 659 26,500 938 Climbing FlightAware ADS-B (KSNC)
Wed 10:05:21 PM 41.7883 -72.1092 62° Northeast 580 667 27,000 923 Climbing FlightAware ADS-B (KSNC)
Wed 10:05:53 PM 41.8254 -72.0154 62° Northeast 586 674 27,500 896 Climbing FlightAware ADS-B (KBKF)
Wed 10:06:28 PM 41.8734 -71.8937 62° Northeast 594 684 28,000 806 Climbing FlightAware ADS-B (SBBR / BSB)
Wed 10:07:00 PM 41.9106 -71.7995 62° Northeast 601 692 28,400 952 Climbing FlightAware ADS-B (SBBR / BSB)
Wed 10:07:31 PM 41.9494 -71.6965 63° Northeast 602 693 29,000 952 Climbing FlightAware ADS-B (SBBR / BSB)
Wed 10:08:03 PM 41.9926 -71.5790 64° Northeast 606 697 29,400 800 Climbing FlightAware ADS-B (SBBR / BSB)
Wed 10:08:16 PM 42.0093 -71.5339 64° Northeast 605 696 29,600 960 Climbing FlightAware ADS-B (EPKK / KRK)
Wed 10:08:53 PM 42.0507 -71.4207 64° Northeast 613 705 30,200 971 Climbing FlightAware ADS-B (EPKK / KRK)
Wed 10:09:24 PM 42.0945 -71.3014 64° Northeast 615 708 30,700 506 Climbing FlightAware ADS-B (EPKK / KRK)
Wed 10:10:16 PM 42.1589 -71.1249 64° Northeast 616 709 30,900 130 Climbing FlightAware ADS-B (KBKF)
Wed 10:10:56 PM 42.2087 -70.9879 64° Northeast 612 704 30,900  Level FlightAware ADS-B (EPKK / KRK)
Wed 10:11:28 PM 42.2487 -70.8779 64° Northeast 610 702 30,900 83 Level FlightAware ADS-B (SBBR / BSB)
Wed 10:12:08 PM 42.2907 -70.7613 64° Northeast 604 695 31,000 257 Climbing FlightAware ADS-B (SBBR / BSB)
Wed 10:12:38 PM 42.3347 -70.6386 64° Northeast 613 705 31,200 575 Climbing FlightAware ADS-B (SBBR / BSB)
Wed 10:13:21 PM 42.3887 -70.4874 64° Northeast 621 715 31,700 568 Climbing FlightAware ADS-B (EPKK / KRK)
Wed 10:13:52 PM 42.4268 -70.3803 64° Northeast 628 723 31,900 592 Climbing FlightAware ADS-B (EPKK / KRK)
Wed 10:14:32 PM 42.4766 -70.2394 64° Northeast 633 728 32,400 779 Climbing FlightAware ADS-B (EPKK / KRK)
Wed 10:15:09 PM 42.5178 -70.1226 64° Northeast 633 728 32,900 330 Climbing FlightAware ADS-B (EPKK / KRK)
Wed 10:16:03 PM 42.5760 -69.9567 64° Northeast 633 728 32,900  Level FlightAware ADS-B (EPKK / KRK)
Wed 10:16:39 PM 42.6365 -69.7828 65° Northeast 631 726 32,900  Level FlightAware ADS-B (EPKK / KRK)
Wed 10:17:16 PM 42.6819 -69.6517 65° Northeast 629 724 32,900  Level FlightAware ADS-B
Wed 10:17:55 PM 42.7268 -69.5210 65° Northeast 629 724 32,900  Level FlightAware ADS-B
Wed 10:18:26 PM 42.7651 -69.4099 65° Northeast 629 724 32,900  Level FlightAware ADS-B
Wed 10:19:01 PM 42.8108 -69.2763 65° Northeast 629 724 32,900  Level FlightAware ADS-B (EPKK / KRK)
Wed 10:19:57 PM 42.8801 -69.0728 65° Northeast 633 728 32,900  Level FlightAware ADS-B
Wed 10:20:29 PM 42.9186 -68.9583 65° Northeast 633 728 32,900  Level FlightAware ADS-B
Wed 10:20:59 PM 42.9553 -68.8498 65° Northeast 634 730 32,900  Level FlightAware ADS-B
Wed 10:22:00 PM 43.0293 -68.6290 65° Northeast 631 726 32,900  Level FlightAware ADS-B
Wed 10:23:05 PM 43.1085 -68.3905 65° Northeast 630 725 32,900  Level FlightAware ADS-B
Wed 10:23:36 PM 43.1450 -68.2794 66° East 629 724 32,900  Level FlightAware ADS-B
Wed 10:24:10 PM 43.1855 -68.1562 66° East 630 725 32,900  Level FlightAware ADS-B
Wed 10:24:51 PM 43.2341 -68.0073 66° East 629 724 32,900  Level FlightAware ADS-B
Wed 10:25:52 PM 43.2974 -67.8123 66° East 630 725 32,900  Level FlightAware ADS-B
Wed 10:26:41 PM 43.3607 -67.6164 66° East 629 724 32,900  Level FlightAware ADS-B
Wed 10:27:12 PM 43.3938 -67.5126 66° East 629 724 32,900  Level FlightAware ADS-B
Wed 10:28:24 PM 43.4827 -67.2336 66° East 629 724 32,900  Level FlightAware ADS-B
Wed 10:29:25 PM 43.5575 -67.0082 65° Northeast 630 725 32,900  Level FlightAware ADS-B
Wed 10:29:55 PM 43.6008 -66.9002 61° Northeast 631 726 32,900  Level FlightAware ADS-B
Wed 10:30:29 PM 43.6492 -66.7865 59° Northeast 633 728 32,900  Level FlightAware ADS-B
Wed 10:31:00 PM 43.6939 -66.6832 59° Northeast 632 727 32,900  Level FlightAware ADS-B
Wed 10:31:55 PM 43.7773 -66.4888 59° Northeast 633 728 32,900  Level FlightAware ADS-B
Wed 10:32:45 PM 43.8436 -66.3331 59° Northeast 634 730 32,900  Level FlightAware ADS-B
Wed 10:33:22 PM 43.9057 -66.1864 60° Northeast 634 730 32,900  Level FlightAware ADS-B
Wed 10:34:05 PM 43.9686 -66.0365 60° Northeast 633 728 32,900  Level FlightAware ADS-B
Wed 10:34:36 PM 44.0177 -65.9192 60° Northeast 633 728 32,900  Level FlightAware ADS-B
Wed 10:35:07 PM 44.0547 -65.8303 60° Northeast 633 728 32,900  Level FlightAware ADS-B
Wed 10:35:37 PM 44.1068 -65.7048 60° Northeast 634 730 32,900  Level FlightAware ADS-B
Wed 10:36:07 PM 44.1498 -65.6009 60° Northeast 635 731 32,900  Level FlightAware ADS-B
Wed 10:36:39 PM 44.1924 -65.4971 60° Northeast 637 733 32,900  Level FlightAware ADS-B
Wed 10:37:09 PM 44.2410 -65.3790 60° Northeast 638 734 32,900  Level FlightAware ADS-B
Wed 10:37:43 PM 44.2862 -65.2681 60° Northeast 639 735 32,900  Level FlightAware ADS-B
Wed 10:38:14 PM 44.3360 -65.1463 60° Northeast 640 736 32,900  Level FlightAware ADS-B
Wed 10:38:59 PM 44.4006 -64.9866 60° Northeast 642 739 32,900  Level FlightAware ADS-B
Wed 10:39:39 PM 44.4590 -64.8415 61° Northeast 643 740 32,900  Level FlightAware ADS-B
Wed 10:40:19 PM 44.5167 -64.6978 61° Northeast 641 738 32,900  Level FlightAware ADS-B
Wed 10:41:00 PM 44.5779 -64.5440 61° Northeast 641 738 32,900  Level FlightAware ADS-B
Wed 10:42:00 PM 44.6606 -64.3352 61° Northeast 641 738 32,900  Level FlightAware ADS-B
Wed 10:42:55 PM 44.7430 -64.1270 61° Northeast 640 736 32,900  Level FlightAware ADS-B
Wed 10:43:33 PM 44.7970 -63.9880 61° Northeast 639 735 32,900  Level FlightAware ADS-B
Wed 10:44:30 PM 44.8740 -63.7890 61° Northeast 639 735 32,900  Level FlightAware ADS-B
Wed 10:45:06 PM 44.9290 -63.6470 61° Northeast 640 736 32,900  Level FlightAware ADS-B
Wed 10:46:05 PM 45.0120 -63.4300 62° Northeast 640 736 32,900  Level FlightAware ADS-B
Wed 10:47:01 PM 45.0900 -63.2240 62° Northeast 640 736 32,900  Level FlightAware ADS-B
Wed 10:47:56 PM 45.1660 -63.0220 62° Northeast 637 733 32,900  Level FlightAware ADS-B
Wed 10:48:30 PM 45.2090 -62.9070 62° Northeast 635 731 32,900  Level FlightAware ADS-B
Wed 10:49:08 PM 45.2570 -62.7800 62° Northeast 634 730 32,900  Level FlightAware ADS-B
Wed 10:50:01 PM 45.3380 -62.5600 62° Northeast 629 724 32,900  Level FlightAware ADS-B
Wed 10:50:27 PM 45.3730 -62.4670 62° Northeast 629 724 32,900  Level FlightAware ADS-B
Wed 10:51:28 PM 45.4540 -62.2460 62° Northeast 630 725 32,900  Level FlightAware ADS-B
Wed 10:52:01 PM 45.4970 -62.1260 63° Northeast 630 725 32,900  Level FlightAware ADS-B
Wed 10:52:33 PM 45.5410 -62.0060 62° Northeast 630 725 32,900  Level FlightAware ADS-B
Wed 10:53:26 PM 45.6130 -61.8070 63° Northeast 631 726 32,900  Level FlightAware ADS-B
Wed 10:53:53 PM 45.6490 -61.7070 63° Northeast 632 727 32,900  Level FlightAware ADS-B
Wed 10:54:49 PM 45.7240 -61.4970 63° Northeast 631 726 32,900  Level FlightAware ADS-B
Wed 10:55:22 PM 45.7650 -61.3780 64° Northeast 632 727 32,900  Level FlightAware ADS-B
Wed 10:56:14 PM 45.8350 -61.1830 63° Northeast 633 728 32,900  Level FlightAware ADS-B
Wed 10:57:00 PM 45.8950 -61.0110 63° Northeast 633 728 32,900  Level FlightAware ADS-B
Wed 10:57:58 PM 45.9700 -60.7940 63° Northeast 632 727 32,900  Level FlightAware ADS-B
Wed 10:59:00 PM 46.0520 -60.5560 64° Northeast 631 726 32,900  Level FlightAware ADS-B
Wed 10:59:58 PM 46.1270 -60.3370 64° Northeast 631 726 32,900  Level FlightAware ADS-B
Wed 11:00:32 PM 46.1690 -60.2130 64° Northeast 631 726 32,900  Level FlightAware ADS-B
Wed 11:01:42 PM 46.2590 -59.9450 64° Northeast 632 727 32,900  Level FlightAware ADS-B
Wed 11:02:22 PM 46.3100 -59.7920 64° Northeast 632 727 32,900  Level FlightAware ADS-B
Wed 11:03:18 PM 46.3800 -59.5810 64° Northeast 633 728 32,900  Level FlightAware ADS-B
Wed 11:04:10 PM 46.4460 -59.3790 65° Northeast 633 728 32,900  Level FlightAware ADS-B
Wed 11:04:58 PM 46.5040 -59.2000 65° Northeast 633 728 32,900 60 Level FlightAware ADS-B
Wed 11:05:50 PM 46.5700 -58.9960 65° Northeast 632 727 33,000  Climbing FlightAware ADS-B
Wed 11:06:18 PM 46.6030 -58.8940 65° Northeast 631 726 32,900 -70 Descending FlightAware ADS-B
Wed 11:07:16 PM 46.6770 -58.6640 65° Northeast 631 726 32,900  Level FlightAware ADS-B
Wed 11:08:02 PM 46.7310 -58.4940 65° Northeast 629 724 32,900  Level FlightAware ADS-B
Wed 11:08:53 PM 46.7870 -58.3170 65° Northeast 628 723 32,900  Level FlightAware ADS-B
Wed 11:09:29 PM 46.8240 -58.1990 65° Northeast 628 723 32,900  Level FlightAware ADS-B
Wed 11:10:05 PM 46.8620 -58.0810 65° Northeast 628 723 32,900  Level FlightAware ADS-B
Wed 11:10:41 PM 46.9000 -57.9630 65° Northeast 628 723 32,900  Level FlightAware ADS-B
Wed 11:11:34 PM 46.9860 -57.6720 66° East 632 727 32,900  Level FlightAware ADS-B
Wed 11:12:03 PM 47.0210 -57.5570 66° East 633 728 32,900  Level FlightAware ADS-B
Wed 11:12:31 PM 47.0550 -57.4450 66° East 634 730 32,900  Level FlightAware ADS-B
Wed 11:13:06 PM 47.0960 -57.3110 66° East 635 731 32,900  Level FlightAware ADS-B
Wed 11:13:53 PM 47.1520 -57.1230 66° East 638 734 32,900  Level FlightAware ADS-B
Wed 11:14:45 PM 47.2150 -56.9140 66° East 640 736 32,900  Level FlightAware ADS-B
Wed 11:15:21 PM 47.2570 -56.7720 66° East 639 735 32,900  Level FlightAware ADS-B
Wed 11:15:42 PM 47.2810 -56.6880 67° East 641 738 32,900 74 Level FlightAware ADS-B
Wed 11:16:42 PM 47.3510 -56.4480 67° East 641 738 33,000 54 Climbing FlightAware ADS-B
Wed 11:17:34 PM 47.4130 -56.2370 66° East 639 735 33,000 -56 Level FlightAware ADS-B
Wed 11:18:30 PM 47.4760 -56.0160 67° East 641 738 32,900  Descending FlightAware ADS-B
Wed 11:19:06 PM 47.5170 -55.8720 67° East 640 736 33,000  Climbing FlightAware ADS-B
Wed 11:19:34 PM 47.5500 -55.7560 67° East 639 735 32,900 -87 Descending FlightAware ADS-B
Wed 11:20:15 PM 47.5970 -55.5910 67° East 639 735 32,900  Level FlightAware ADS-B
Wed 11:21:07 PM 47.6550 -55.3820 68° East 637 733 32,900 71 Level FlightAware ADS-B
Wed 11:21:39 PM 47.6910 -55.2520 68° East 636 732 33,000 522 Climbing FlightAware ADS-B
Wed 11:22:16 PM 47.7330 -55.1010 67° East 635 731 33,500 794 Climbing FlightAware ADS-B
Wed 11:22:47 PM 47.7660 -54.9800 68° East 636 732 33,900 353 Climbing FlightAware ADS-B
Wed 11:23:24 PM 47.8080 -54.8260 68° East 643 740 33,900  Level FlightAware ADS-B
Wed 11:23:57 PM 47.8440 -54.6930 68° East 640 736 33,900 100 Level FlightAware ADS-B
Wed 11:24:24 PM 47.8740 -54.5830 68° East 639 735 34,000  Climbing FlightAware ADS-B
Wed 11:25:01 PM 47.9150 -54.4310 68° East 638 734 33,900 -64 Descending FlightAware ADS-B
Wed 11:25:58 PM 47.9770 -54.1990 68° East 635 731 33,900  Level FlightAware ADS-B
Wed 11:26:26 PM 48.0070 -54.0860 68° East 636 732 33,900  Level FlightAware ADS-B
Wed 11:26:56 PM 48.0400 -53.9610 68° East 636 732 33,900  Level FlightAware ADS-B
Wed 11:27:25 PM 48.0700 -53.8440 69° East 636 732 33,900  Level FlightAware ADS-B
Wed 11:28:21 PM 48.1300 -53.6150 68° East 636 732 33,900  Level FlightAware ADS-B
Wed 11:29:13 PM 48.1850 -53.3990 69° East 636 732 33,900  Level FlightAware ADS-B
Wed 11:30:03 PM 48.2380 -53.1920 69° East 637 733 33,900 74 Level FlightAware ADS-B
Wed 11:30:34 PM 48.2700 -53.0670 69° East 636 732 34,000  Climbing FlightAware ADS-B
Wed 11:31:35 PM 48.3330 -52.8160 69° East 633 728 33,900 -53 Descending FlightAware ADS-B
Wed 11:32:27 PM 48.3860 -52.6030 69° East 630 725 33,900 65 Level FlightAware ADS-B
Wed 11:33:08 PM 48.4280 -52.4330 70° East 631 726 34,000  Climbing FlightAware ADS-B
Wed 11:33:44 PM 48.4640 -52.2830 70° East 632 727 33,900 -65 Descending FlightAware ADS-B
Wed 11:34:41 PM 48.5210 -52.0490 70° East 632 727 33,900  Level FlightAware ADS-B
Wed 11:35:07 PM 48.5470 -51.9420 70° East 632 727 33,900  Level FlightAware ADS-B
Wed 11:36:03 PM 48.6020 -51.7100 70° East 633 728 33,900  Level FlightAware ADS-B
Wed 11:36:31 PM 48.6300 -51.5940 70° East 633 728 33,900  Level FlightAware ADS-B
Wed 11:37:06 PM 48.6640 -51.4470 71° East 634 730 33,900  Level FlightAware ADS-B
Wed 11:37:47 PM 48.7040 -51.2770 70° East 634 730 33,900  Level FlightAware ADS-B
Wed 11:38:21 PM 48.7340 -51.1460 71° East 632 727 33,900  Level FlightAware ADS-B
Wed 11:39:21 PM 48.7940 -50.8880 70° East 630 725 33,900  Level FlightAware ADS-B
Wed 11:40:23 PM 48.8460 -50.6680 70° East 630 725 33,900  Level FlightAware ADS-B
Wed 11:40:47 PM 48.8670 -50.5830 69° East 630 725 33,900  Level FlightAware ADS-B
Wed 11:41:23 PM 48.8970 -50.4560 70° East 630 725 33,900  Level FlightAware ADS-B
Wed 11:41:59 PM 48.9280 -50.3280 70° East 630 725 33,900  Level FlightAware ADS-B
Wed 11:42:33 PM 48.9570 -50.2080 70° East 630 725 33,900 98 Level FlightAware ADS-B
Wed 11:43:00 PM 49.0000 -50.0000 69° East 590 679 34,000  Climbing ETMS Enhanced Traffic Management System
Wed 11:43:09 PM 48.9870 -50.0800 70° East 630 725 33,900 -182 Descending FlightAware ADS-B
Wed 11:43:33 PM 49.0070 -49.9950 70° East 630 725 33,900  Level FlightAware ADS-B
Wed 11:43:55 PM 49.0333 -49.6833 69° East 620 713 33,900  Level Gander Center
Wed 11:44:33 PM 49.0580 -49.7820 70° East 630 725 33,900  Level FlightAware ADS-B
Wed 11:45:34 PM 49.1100 -49.5650 70° East 630 725 33,900  Level FlightAware ADS-B
Wed 11:46:23 PM 49.1510 -49.3910 70° East 630 725 33,900  Level FlightAware ADS-B
Wed 11:47:11 PM 49.1920 -49.2200 70° East 630 725 33,900  Level FlightAware ADS-B
Wed 11:48:00 PM 49.2330 -49.0450 70° East 630 725 33,900  Level FlightAware ADS-B
Wed 11:48:49 PM 49.2750 -48.8700 69° East 630 725 33,900  Level FlightAware ADS-B
Wed 11:49:55 PM 49.4000 -48.1833 69° East 620 713 33,900  Level Gander Center
Wed 11:50:55 PM 49.4667 -47.9333 68° East 620 713 33,900  Level Gander Center
Wed 11:51:55 PM 49.5333 -47.6833 68° East 620 713 33,900 Level Gander Center
Wed 11:54:00 PM 49.5957 -47.4111 70° East  Level FlightAware Approximate
Thu 12:01:00 AM 49.9331 -45.8740 71° East  Level FlightAware Approximate
Thu 12:02:00 AM 49.9796 -45.6527 72° East  Level FlightAware Approximate
Thu 12:03:00 AM 50.0257 -45.4310 72° East  Level FlightAware Approximate
Thu 12:04:00 AM 50.0714 -45.2088 72° East  Level FlightAware Approximate
Thu 12:05:00 AM 50.1166 -44.9862 72° East  Level FlightAware Approximate
Thu 12:06:00 AM 50.1614 -44.7632 73° East  Level FlightAware Approximate
Thu 12:07:00 AM 50.2058 -44.5398 73° East  Level FlightAware Approximate
Thu 12:08:00 AM 50.2498 -44.3159 73° East  Level FlightAware Approximate
Thu 12:09:00 AM 50.2934 -44.0917 73° East  Level FlightAware Approximate
Thu 12:10:00 AM 50.3365 -43.8670 73° East  Level FlightAware Approximate
Thu 12:11:00 AM 50.3791 -43.6419 73° East  Level FlightAware Approximate
Thu 12:12:00 AM 50.4214 -43.4165 74° East  Level FlightAware Approximate
Thu 12:13:00 AM 50.4632 -43.1906 74° East  Level FlightAware Approximate
Thu 12:14:00 AM 50.5046 -42.9643 74° East  Level FlightAware Approximate
Thu 12:15:00 AM 50.5455 -42.7377 74° East  Level FlightAware Approximate
Thu 12:16:00 AM 50.5860 -42.5106 74° East  Level FlightAware Approximate
Thu 12:17:00 AM 50.6260 -42.2832 74° East  Level FlightAware Approximate
Thu 12:18:00 AM 50.6656 -42.0554 75° East  Level FlightAware Approximate
Thu 12:19:00 AM 50.7048 -41.8271 75° East  Level FlightAware Approximate
Thu 12:20:00 AM 50.7435 -41.5986 75° East  Level FlightAware Approximate
Thu 12:21:00 AM 50.7817 -41.3696 75° East  Level FlightAware Approximate
Thu 12:22:00 AM 50.8195 -41.1403 75° East  Level FlightAware Approximate
Thu 12:23:00 AM 50.8569 -40.9105 75° East  Level FlightAware Approximate
Thu 12:24:00 AM 50.8938 -40.6805 76° East  Level FlightAware Approximate
Thu 12:24:00 AM 51.0000 -40.0000 77° East 553 636 34,000  Level ETMS Enhanced Traffic Management System
Thu 12:25:00 AM 50.9293 -40.4563 76° East  Level FlightAware Approximate
Thu 12:26:00 AM 50.9643 -40.2318 76° East  Level FlightAware Approximate
Thu 12:27:00 AM 50.9989 -40.0069 76° East  Level FlightAware Approximate
Thu 12:28:00 AM 51.0316 -39.7812 77° East  Level FlightAware Approximate
Thu 12:29:00 AM 51.0638 -39.5551 77° East  Level FlightAware Approximate
Thu 12:30:00 AM 51.2614 -38.0860 78° East 553 636 34,000  Level FlightAware Transoceanic
Thu 12:31:00 AM 51.2918 -37.8452 79° East 553 636 34,000  Level FlightAware Transoceanic
Thu 12:32:00 AM 51.3218 -37.6042 79° East 553 636 34,000  Level FlightAware Transoceanic
Thu 12:33:00 AM 51.3513 -37.3628 79° East 553 636 34,000  Level FlightAware Transoceanic
Thu 12:34:00 AM 51.3803 -37.1211 79° East 553 636 34,000  Level FlightAware Transoceanic
Thu 12:35:00 AM 51.4087 -36.8791 79° East 553 636 34,000  Level FlightAware Transoceanic
Thu 12:36:00 AM 51.4367 -36.6368 80° East 553 636 34,000  Level FlightAware Transoceanic
Thu 12:37:00 AM 51.4642 -36.3942 80° East 553 636 34,000  Level FlightAware Transoceanic
Thu 12:38:00 AM 51.4912 -36.1514 80° East 553 636 34,000  Level FlightAware Transoceanic
Thu 12:39:00 AM 51.5177 -35.9082 80° East 553 636 34,000  Level FlightAware Transoceanic
Thu 12:40:00 AM 51.5436 -35.6648 80° East 553 636 34,000  Level FlightAware Transoceanic
Thu 12:41:00 AM 51.5691 -35.4211 81° East 553 636 34,000  Level FlightAware Transoceanic
Thu 12:42:00 AM 51.5941 -35.1771 81° East 553 636 34,000  Level FlightAware Transoceanic
Thu 12:43:00 AM 51.6185 -34.9328 81° East 553 636 34,000  Level FlightAware Transoceanic
Thu 12:44:00 AM 51.6425 -34.6883 81° East 553 636 34,000  Level FlightAware Transoceanic
Thu 12:45:00 AM 51.6659 -34.4436 81° East 553 636 34,000  Level FlightAware Transoceanic
Thu 12:46:00 AM 51.6889 -34.1986 82° East 553 636 34,000  Level FlightAware Transoceanic
Thu 12:47:00 AM 51.7113 -33.9533 82° East 553 636 34,000  Level FlightAware Transoceanic
Thu 12:48:00 AM 51.7332 -33.7078 82° East 553 636 34,000  Level FlightAware Transoceanic
Thu 12:49:00 AM 51.7546 -33.4621 82° East 553 636 34,000  Level FlightAware Transoceanic
Thu 12:50:00 AM 51.7755 -33.2161 82° East 553 636 34,000  Level FlightAware Transoceanic
Thu 12:51:00 AM 51.7959 -32.9699 82° East 553 636 34,000  Level FlightAware Transoceanic
Thu 12:52:00 AM 51.8157 -32.7235 83° East 553 636 34,000  Level FlightAware Transoceanic
Thu 12:53:00 AM 51.8351 -32.4769 83° East 553 636 34,000  Level FlightAware Transoceanic
Thu 12:54:00 AM 51.8539 -32.2300 83° East 553 636 34,000  Level FlightAware Transoceanic
Thu 12:55:00 AM 51.8722 -31.9830 83° East 553 636 34,000  Level FlightAware Transoceanic
Thu 12:56:00 AM 51.8900 -31.7358 83° East 553 636 34,000  Level FlightAware Transoceanic
Thu 12:57:00 AM 51.9073 -31.4883 84° East 553 636 34,000  Level FlightAware Transoceanic
Thu 12:58:00 AM 51.9240 -31.2407 84° East 553 636 34,000  Level FlightAware Transoceanic
Thu 12:59:00 AM 51.9403 -30.9929 84° East 553 636 34,000  Level FlightAware Transoceanic
Thu 01:00:00 AM 51.9560 -30.7449 84° East 553 636 34,000  Level FlightAware Transoceanic
Thu 01:01:00 AM 51.9712 -30.4968 84° East 553 636 34,000  Level FlightAware Transoceanic
Thu 01:02:00 AM 51.9859 -30.2485 85° East 553 636 34,000  Level FlightAware Transoceanic
Thu 01:03:00 AM 51.9993 -30.0128 85° East  Level FlightAware Approximate
Thu 01:04:00 AM 52.0123 -29.7770 85° East  Level FlightAware Approximate
Thu 01:05:00 AM 52.0297 -29.7945 77° East  Level FlightAware Approximate
Thu 01:06:00 AM 52.0625 -29.5637 77° East  Level FlightAware Approximate
Thu 01:07:00 AM 52.0949 -29.3325 77° East  Level FlightAware Approximate
Thu 01:07:00 AM 52.0000 -30.0000 77° East 504 580 34,000  Level ETMS Enhanced Traffic Management System
Thu 01:08:00 AM 52.1268 -29.1009 77° East  Level FlightAware Approximate
Thu 01:09:00 AM 52.1583 -28.8691 77° East  Level FlightAware Approximate
Thu 01:10:00 AM 52.1893 -28.6369 78° East  Level FlightAware Approximate
Thu 01:11:00 AM 52.2199 -28.4044 78° East  Level FlightAware Approximate
Thu 01:12:00 AM 52.2500 -28.1715 78° East  Level FlightAware Approximate
Thu 01:13:00 AM 52.2440 -28.2184 78° East 504 580 34,000  Level FlightAware Transoceanic
Thu 01:14:00 AM 52.2726 -27.9944 78° East 504 580 34,000  Level FlightAware Transoceanic
Thu 01:15:00 AM 52.3008 -27.7700 78° East 504 580 34,000  Level FlightAware Transoceanic
Thu 01:16:00 AM 52.3285 -27.5454 79° East 504 580 34,000  Level FlightAware Transoceanic
Thu 01:17:00 AM 52.3558 -27.3205 79° East 504 580 34,000  Level FlightAware Transoceanic
Thu 01:18:00 AM 52.3827 -27.0954 79° East 504 580 34,000  Level FlightAware Transoceanic
Thu 01:19:00 AM 52.4092 -26.8699 79° East 504 580 34,000  Level FlightAware Transoceanic
Thu 01:20:00 AM 52.4352 -26.6442 79° East 504 580 34,000  Level FlightAware Transoceanic
Thu 01:21:00 AM 52.4609 -26.4182 80° East 504 580 34,000  Level FlightAware Transoceanic
Thu 01:22:00 AM 52.4860 -26.1920 80° East 504 580 34,000  Level FlightAware Transoceanic
Thu 01:23:00 AM 52.5108 -25.9655 80° East 504 580 34,000  Level FlightAware Transoceanic
Thu 01:24:00 AM 52.5351 -25.7387 80° East 504 580 34,000  Level FlightAware Transoceanic
Thu 01:25:00 AM 52.5590 -25.5117 80° East 504 580 34,000  Level FlightAware Transoceanic
Thu 01:26:00 AM 52.5824 -25.2845 80° East 504 580 34,000  Level FlightAware Transoceanic
Thu 01:27:00 AM 52.6054 -25.0570 81° East 504 580 34,000  Level FlightAware Transoceanic
Thu 01:28:00 AM 52.6280 -24.8293 81° East 504 580 34,000  Level FlightAware Transoceanic
Thu 01:29:00 AM 52.6502 -24.6013 81° East 504 580 34,000  Level FlightAware Transoceanic
Thu 01:30:00 AM 52.6718 -24.3732 81° East 504 580 34,000  Level FlightAware Transoceanic
Thu 01:31:00 AM 52.6931 -24.1448 81° East 504 580 34,000  Level FlightAware Transoceanic
Thu 01:32:00 AM 52.7139 -23.9161 82° East 504 580 34,000  Level FlightAware Transoceanic
Thu 01:33:00 AM 52.7343 -23.6873 82° East 504 580 34,000  Level FlightAware Transoceanic
Thu 01:34:00 AM 52.7542 -23.4582 82° East 504 580 34,000  Level FlightAware Transoceanic
Thu 01:35:00 AM 52.7738 -23.2290 82° East 504 580 34,000  Level FlightAware Transoceanic
Thu 01:36:00 AM 52.7928 -22.9995 82° East 504 580 34,000  Level FlightAware Transoceanic
Thu 01:37:00 AM 52.8114 -22.7698 82° East 504 580 34,000  Level FlightAware Transoceanic
Thu 01:38:00 AM 52.8296 -22.5400 83° East 504 580 34,000  Level FlightAware Transoceanic
Thu 01:39:00 AM 52.8473 -22.3099 83° East 504 580 34,000  Level FlightAware Transoceanic
Thu 01:40:00 AM 52.8646 -22.0797 83° East 504 580 34,000  Level FlightAware Transoceanic
Thu 01:41:00 AM 52.8814 -21.8493 83° East 504 580 34,000  Level FlightAware Transoceanic
Thu 01:42:00 AM 52.8978 -21.6187 83° East 504 580 34,000  Level FlightAware Transoceanic
Thu 01:43:00 AM 52.9138 -21.3879 84° East 504 580 34,000  Level FlightAware Transoceanic
Thu 01:44:00 AM 52.9293 -21.1570 84° East 504 580 34,000  Level FlightAware Transoceanic
Thu 01:45:00 AM 52.9443 -20.9259 84° East 504 580 34,000  Level FlightAware Transoceanic
Thu 01:46:00 AM 52.9589 -20.6947 84° East 504 580 34,000  Level FlightAware Transoceanic
Thu 01:47:00 AM 52.9730 -20.4632 84° East 504 580 34,000  Level FlightAware Transoceanic
Thu 01:48:00 AM 52.9868 -20.2317 84° East 504 580 34,000 58 Level FlightAware Transoceanic
Thu 01:49:00 AM 53.0005 -19.9907 84° East  Level FlightAware Approximate
Thu 01:50:00 AM 53.0000 -19.9812 90° East  Level FlightAware Approximate
Thu 01:51:00 AM 52.9991 -19.7391 90° East  Level FlightAware Approximate
Thu 01:52:00 AM 52.9978 -19.4970 90° East  Level FlightAware Approximate
Thu 01:53:00 AM 52.9959 -19.2548 91° East  Level FlightAware Approximate
Thu 01:54:00 AM 52.9936 -19.0131 91° East  Level FlightAware Approximate
Thu 01:55:00 AM 52.9908 -18.7715 91° East  Level FlightAware Approximate
Thu 01:56:00 AM 52.9875 -18.5299 91° East  Level FlightAware Approximate
Thu 01:57:00 AM 52.9837 -18.2883 91° East  Level FlightAware Approximate
Thu 01:58:00 AM 52.9795 -18.0468 92° East  Level FlightAware Approximate
Thu 01:59:00 AM 52.9747 -17.8053 92° East  Level FlightAware Approximate
Thu 02:00:00 AM 52.9695 -17.5639 92° East  Level FlightAware Approximate
Thu 02:01:00 AM 52.9637 -17.3225 92° East  Level FlightAware Approximate
Thu 02:02:00 AM 52.9575 -17.0812 92° East  Level FlightAware Approximate
Thu 02:03:00 AM 52.9508 -16.8400 93° East  Level FlightAware Approximate
Thu 02:04:00 AM 52.9436 -16.5989 93° East  Level FlightAware Approximate
Thu 02:05:00 AM 52.9359 -16.3578 93° East  Level FlightAware Approximate
Thu 02:06:00 AM 52.9277 -16.1168 93° East  Level FlightAware Approximate
Thu 02:07:00 AM 52.9190 -15.8760 93° East  Level FlightAware Approximate
Thu 02:08:00 AM 52.9099 -15.6352 94° East  Level FlightAware Approximate
Thu 02:09:00 AM 52.9002 -15.3945 94° East  Level FlightAware Approximate
Thu 02:10:00 AM 52.8901 -15.1539 94° East  Level FlightAware Approximate
Thu 02:11:00 AM 52.8798 -14.9135 94° East  Level FlightAware Approximate
Thu 02:12:00 AM 52.8696 -14.6730 94° East  Level FlightAware Approximate
Thu 02:13:00 AM 52.8589 -14.4327 94° East  Level FlightAware Approximate
Thu 02:14:00 AM 52.8477 -14.1925 94° East  Level FlightAware Approximate
Thu 02:15:00 AM 52.8361 -13.9524 94° East  Level FlightAware Approximate
Thu 02:16:00 AM 52.8240 -13.7124 95° East  Level FlightAware Approximate
Thu 02:17:00 AM 52.8113 -13.4726 95° East  Level FlightAware Approximate
Thu 02:18:00 AM 52.7982 -13.2330 95° East  Level FlightAware Approximate
Thu 02:19:00 AM 52.7846 -12.9934 95° East  Level FlightAware Approximate
Thu 02:20:00 AM 52.7706 -12.7541 95° East  Level FlightAware Approximate
Thu 02:21:00 AM 52.7560 -12.5148 96° East  Level FlightAware Approximate
Thu 02:21:13 AM 52.8860 -12.9670 96° East 497 572 36,000  Level FlightAware ADS-B
Thu 02:21:43 AM 52.8770 -12.8420 97° East 499 574 36,000  Level FlightAware ADS-B
Thu 02:22:00 AM 52.7410 -12.2758 96° East  Level FlightAware Approximate
Thu 02:22:38 AM 52.8630 -12.6590 97° East 502 578 36,000  Level FlightAware ADS-B
Thu 02:23:13 AM 52.8540 -12.5580 98° East 504 580 36,000  Level FlightAware ADS-B
Thu 02:23:43 AM 52.8400 -12.3890 98° East 505 581 36,000  Level FlightAware ADS-B
Thu 02:24:18 AM 52.8290 -12.2520 98° East 507 583 36,000  Level FlightAware ADS-B
Thu 02:24:52 AM 52.8180 -12.1150 98° East 508 585 36,000  Level FlightAware ADS-B
Thu 02:25:38 AM 52.8030 -11.9390 98° East 511 588 36,000  Level FlightAware ADS-B
Thu 02:26:13 AM 52.7910 -11.8050 98° East 513 590 36,000  Level FlightAware ADS-B
Thu 02:26:48 AM 52.7790 -11.6690 98° East 513 590 36,000  Level FlightAware ADS-B
Thu 02:27:28 AM 52.7660 -11.5160 98° East 512 589 36,000  Level FlightAware ADS-B
Thu 02:27:58 AM 52.7550 -11.3980 99° East 512 589 36,000  Level FlightAware ADS-B
Thu 02:28:48 AM 52.7370 -11.2050 99° East 511 588 36,000  Level FlightAware ADS-B
Thu 02:29:13 AM 52.7280 -11.1090 99° East 510 587 36,000  Level FlightAware ADS-B
Thu 02:30:15 AM 52.7060 -10.8760 99° East 509 586 36,000  Level FlightAware ADS-B
Thu 02:30:54 AM 52.6920 -10.7240 99° East 509 586 36,000  Level FlightAware ADS-B
Thu 02:31:29 AM 52.6790 -10.5910 99° East 509 586 36,000  Level FlightAware ADS-B
Thu 02:32:14 AM 52.6620 -10.4180 99° East 508 585 36,000  Level FlightAware ADS-B
Thu 02:32:54 AM 52.6470 -10.2660 99° East 507 583 36,000  Level FlightAware ADS-B
Thu 02:33:34 AM 52.6310 -10.1130 100° East 508 585 36,000  Level FlightAware ADS-B
Thu 02:34:04 AM 52.6200 -10.0010 99° East 508 585 36,000  Level FlightAware ADS-B
Thu 02:35:00 AM 52.5980 -9.7890 100° East 509 586 36,000  Level FlightAware ADS-B
Thu 02:36:04 AM 52.5710 -9.5400 100° East 507 583 36,000  Level FlightAware ADS-B
Thu 02:36:24 AM 52.6349 -10.1496 280° West 509 586 36,000  Level FlightAware ADS-B
Thu 02:37:07 AM 52.6349 -10.1496 107° East 509 586 36,000  Level FlightAware ADS-B (EPBY / BZG)
Thu 02:38:05 AM 52.5210 -9.0830 107° East 509 586 36,000  Level FlightAware ADS-B
Thu 02:38:20 AM 52.5098 -8.9705 107° East 486 559 36,000  Level FlightAware UK
Thu 02:38:45 AM 52.5040 -8.9320 107° East 510 587 36,000  Level FlightAware ADS-B
Thu 02:38:50 AM 52.4976 -8.8579 107° East 484 557 36,000  Level FlightAware UK
Thu 02:39:15 AM 52.4910 -8.8160 107° East 511 588 36,000  Level FlightAware ADS-B
Thu 02:39:20 AM 52.4844 -8.7434 107° East 488 562 36,000  Level FlightAware UK
Thu 02:39:38 AM 52.4807 -8.7249 100° East 513 590 36,000  Level FlightAware ADS-B
Thu 02:40:08 AM 52.4732 -8.6582 100° East 513 590 36,000  Level FlightAware ADS-B (EPBY / BZG)
Thu 02:40:38 AM 52.4598 -8.5437 101° East 514 592 36,000  Level FlightAware ADS-B (EPBY / BZG)
Thu 02:41:12 AM 52.4453 -8.4185 101° East 514 592 36,000  Level FlightAware ADS-B (EPBY / BZG)
Thu 02:41:42 AM 52.4296 -8.2862 101° East 513 590 36,000  Level FlightAware ADS-B (EPBY / BZG)
Thu 02:42:13 AM 52.4155 -8.1682 101° East 515 593 36,000  Level FlightAware ADS-B (EPBY / BZG)
Thu 02:42:51 AM 52.3980 -8.0234 101° East 516 594 36,000  Level FlightAware ADS-B (EPBY / BZG)
Thu 02:43:22 AM 52.3884 -7.9437 101° East 516 594 36,000  Level FlightAware ADS-B (EPBY / BZG)
Thu 02:43:58 AM 52.3683 -7.7798 101° East 517 595 36,000  Level FlightAware ADS-B (EPBY / BZG)
Thu 02:44:31 AM 52.3508 -7.6387 101° East 518 596 36,000  Level FlightAware ADS-B (EPBY / BZG)
Thu 02:45:03 AM 52.3365 -7.5247 102° East 519 597 36,000  Level FlightAware ADS-B (EPBY / BZG)
Thu 02:45:33 AM 52.3231 -7.4179 102° East 519 597 36,000  Level FlightAware ADS-B (EPBY / BZG)
Thu 02:46:03 AM 52.3065 -7.2880 102° East 520 598 36,000  Level FlightAware ADS-B (EPBY / BZG)
Thu 02:46:34 AM 52.2914 -7.1703 102° East 520 598 36,000  Level FlightAware ADS-B (EPBY / BZG)
Thu 02:47:06 AM 52.2787 -7.0724 102° East 519 597 36,000  Level FlightAware ADS-B (EPBY / BZG)
Thu 02:47:46 AM 52.2509 -6.8602 102° East 519 597 36,000  Level FlightAware ADS-B
Thu 02:48:16 AM 52.2399 -6.7772 102° East 519 597 36,000  Level FlightAware ADS-B (EPBY / BZG)
Thu 02:48:47 AM 52.2205 -6.6302 102° East 518 596 36,000  Level FlightAware ADS-B
Thu 02:49:26 AM 52.2048 -6.5142 102° East 518 596 36,000  Level FlightAware ADS-B (EPBY / BZG)
Thu 02:49:36 AM 52.2006 -6.4826 102° East 518 596 36,000  Level FlightAware ADS-B
Thu 02:50:07 AM 52.1831 -6.3553 103° East 518 596 36,000  Level FlightAware ADS-B (EPBY / BZG)
Thu 02:50:46 AM 52.1656 -6.2048 101° East 520 598 36,000  Level FlightAware ADS-B (EPBY / BZG)
Thu 02:51:18 AM 52.1532 -6.0896 100° East 520 598 36,000  Level FlightAware ADS-B (EPBY / BZG)
Thu 02:51:48 AM 52.1400 -5.9686 100° East 521 600 36,000  Level FlightAware ADS-B (EPBY / BZG)
Thu 02:52:18 AM 52.1272 -5.8524 100° East 522 601 36,000  Level FlightAware ADS-B (EPBY / BZG)
Thu 02:52:48 AM 52.1153 -5.7499 101° East 523 602 36,000  Level FlightAware ADS-B (EPBY / BZG)
Thu 02:53:18 AM 52.1004 -5.6218 101° East 524 603 36,000  Level FlightAware ADS-B (EPBY / BZG)
Thu 02:53:49 AM 52.0852 -5.4953 101° East 527 606 36,000  Level FlightAware ADS-B (KAPA)
Thu 02:54:24 AM 52.0852 -5.4953 101° East 528 608 36,000  Level FlightAware ADS-B (EGDX / DGX)
Thu 02:55:03 AM 52.0422 -5.1424 101° East 488 562 36,000  Level FlightAware UK
Thu 02:55:24 AM 52.0448 -5.1586 101° East 529 609 36,000  Level FlightAware ADS-B (EPBY / BZG)
Thu 02:55:56 AM 52.0219 -4.9726 101° East 529 609 36,000  Level FlightAware ADS-B (EGCW)
Thu 02:56:29 AM 52.0105 -4.8805 101° East 529 609 36,000  Level FlightAware ADS-B (EPBY / BZG)
Thu 02:56:39 AM 52.0075 -4.8567 102° East 531 611 36,000  Level FlightAware ADS-B
Thu 02:57:31 AM 51.9757 -4.6045 101° East 531 611 36,000  Level FlightAware ADS-B (EGCW)
Thu 02:57:51 AM 51.9657 -4.5258 102° East 530 610 36,000  Level FlightAware ADS-B (LERL / CQM)
Thu 02:58:22 AM 51.9689 -4.5508 281° West 532 612 36,000  Level FlightAware ADS-B (EPBY / BZG)
Thu 02:58:57 AM 51.9449 -4.3644 102° East 534 615 36,000  Level FlightAware ADS-B (EPBY / BZG)
Thu 02:59:39 AM 51.9303 -4.2509 102° East 533 613 36,000  Level FlightAware ADS-B (EPBY / BZG)
Thu 03:00:09 AM 51.8900 -3.9515 102° East 490 564 36,000  Level FlightAware UK
Thu 03:00:26 AM 51.9303 -4.2509 102° East 534 615 36,000  Level FlightAware ADS-B (EPBY / BZG)
Thu 03:01:10 AM 51.8634 -3.7476 102° East 533 613 36,000  Level FlightAware ADS-B
Thu 03:01:47 AM 51.8440 -3.6045 102° East 532 612 36,000  Level FlightAware ADS-B
Thu 03:02:07 AM 51.8489 -3.6398 283° West 533 613 36,000  Level FlightAware ADS-B (EGDX / DGX)
Thu 03:02:19 AM 51.8272 -3.4812 102° East 533 613 36,000  Level FlightAware ADS-B
Thu 03:02:43 AM 51.8142 -3.3874 103° East 533 613 36,000  Level FlightAware ADS-B (LERL / CQM)
Thu 03:03:06 AM 51.8019 -3.2995 103° East 533 613 36,000  Level FlightAware ADS-B
Thu 03:03:16 AM 51.7970 -3.2632 102° East 533 613 36,000  Level FlightAware ADS-B (KAPA)
Thu 03:03:37 AM 51.7852 -3.1799 103° East 533 613 36,000  Level FlightAware ADS-B
Thu 03:03:50 AM 51.7788 -3.1344 103° East 533 613 36,000  Level FlightAware ADS-B (EGDM)
Thu 03:03:55 AM 51.7753 -3.1088 103° East 531 611 36,000  Level FlightAware ADS-B
Thu 03:04:03 AM 51.7706 -3.0761 103° East 531 611 36,000  Level FlightAware ADS-B (LERL / CQM)
Thu 03:04:07 AM 51.7685 -3.0612 103° East 532 612 36,000  Level FlightAware ADS-B
Thu 03:04:16 AM 51.7639 -3.0287 103° East 533 613 36,000  Level FlightAware ADS-B (KAPA)
Thu 03:04:19 AM 51.7622 -3.0166 103° East 531 611 36,000  Level FlightAware ADS-B (LERL / CQM)
Thu 03:04:25 AM 51.7589 -2.9941 103° East 531 611 36,000  Level FlightAware ADS-B (LERL / CQM)
Thu 03:04:35 AM 51.7534 -2.9548 103° East 531 611 36,000  Level FlightAware ADS-B (LERL / CQM)
Thu 03:04:38 AM 51.7515 -2.9422 104° East 533 613 36,000  Level FlightAware ADS-B
Thu 03:04:45 AM 51.7479 -2.9165 103° East 531 611 36,000  Level FlightAware ADS-B (LERL / CQM)
Thu 03:04:57 AM 51.7412 -2.8704 103° East 533 613 36,000  Level FlightAware ADS-B (KAPA)
Thu 03:05:07 AM 51.7359 -2.8322 103° East 534 615 36,000  Level FlightAware ADS-B (KAPA)
Thu 03:05:08 AM 51.7349 -2.8259 104° East 534 615 36,000  Level FlightAware ADS-B
Thu 03:05:16 AM 51.7304 -2.7947 103° East 532 612 36,000  Level FlightAware ADS-B
Thu 03:05:19 AM 51.7287 -2.7830 103° East 532 612 36,000  Level FlightAware ADS-B (LERL / CQM)
Thu 03:05:36 AM 51.7194 -2.7187 103° East 532 612 36,000  Level FlightAware ADS-B
Thu 03:05:39 AM 51.7178 -2.7074 103° East 534 615 36,000  Level FlightAware ADS-B
Thu 03:05:40 AM 51.7173 -2.7036 102° East 532 612 36,000  Level FlightAware ADS-B (LERL / CQM)
Thu 03:05:45 AM 51.7148 -2.6873 104° East 533 613 36,000  Level FlightAware ADS-B
Thu 03:05:56 AM 51.7088 -2.6455 103° East 533 613 36,000  Level FlightAware ADS-B (KAPA)
Thu 03:06:10 AM 51.7003 -2.5869 103° East 533 613 36,000  Level FlightAware ADS-B
Thu 03:06:31 AM 51.6893 -2.5122 103° East 533 613 36,000  Level FlightAware ADS-B (EGCW)
Thu 03:06:41 AM 51.6828 -2.4681 103° East 533 613 36,000  Level FlightAware ADS-B
Thu 03:07:01 AM 51.6711 -2.3888 103° East 533 613 36,000  Level FlightAware ADS-B (EGDM)
Thu 03:07:13 AM 51.6643 -2.3425 103° East 533 613 36,000  Level FlightAware ADS-B
Thu 03:07:31 AM 51.6543 -2.2765 104° East 533 613 36,000  Level FlightAware ADS-B
Thu 03:07:43 AM 51.6471 -2.2271 103° East 533 613 36,000  Level FlightAware ADS-B
Thu 03:07:55 AM 51.6411 -2.1883 104° East 533 613 36,000  Level FlightAware ADS-B
Thu 03:08:17 AM 51.6274 -2.0967 104° East 533 613 36,000  Level FlightAware ADS-B
Thu 03:08:26 AM 51.6226 -2.0642 103° East 531 611 36,000  Level FlightAware ADS-B
Thu 03:08:36 AM 51.6165 -2.0239 104° East 531 611 36,000  Level FlightAware ADS-B
Thu 03:08:48 AM 51.6098 -1.9798 104° East 533 613 36,000  Level FlightAware ADS-B
Thu 03:09:06 AM 51.5991 -1.9097 104° East 533 613 36,000  Level FlightAware ADS-B
Thu 03:09:18 AM 51.5920 -1.8636 104° East 533 613 36,000  Level FlightAware ADS-B
Thu 03:09:40 AM 51.5792 -1.7790 104° East 534 615 36,000  Level FlightAware ADS-B (KAPA)
Thu 03:09:48 AM 51.5743 -1.7477 104° East 534 615 36,000  Level FlightAware ADS-B
Thu 03:10:10 AM 51.5614 -1.6651 104° East 533 613 36,000  Level FlightAware ADS-B
Thu 03:10:19 AM 51.5560 -1.6301 104° East 533 613 36,000  Level FlightAware ADS-B
Thu 03:10:41 AM 51.5519 -1.6035 104° East 534 615 36,000  Level FlightAware ADS-B (EGLC / LCY)
Thu 03:10:50 AM 51.5371 -1.5082 104° East 534 615 36,000  Level FlightAware ADS-B
Thu 03:11:12 AM 51.5245 -1.4279 104° East 534 615 36,000  Level FlightAware ADS-B (EGLC / LCY)
Thu 03:11:21 AM 51.5185 -1.3894 104° East 534 615 36,000  Level FlightAware ADS-B
Thu 03:11:41 AM 51.5074 -1.3180 104° East 536 617 36,000  Level FlightAware ADS-B
Thu 03:11:51 AM 51.5009 -1.2736 103° East 536 617 36,000  Level FlightAware ADS-B
Thu 03:12:12 AM 51.4912 -1.1965 101° East 538 619 36,000  Level FlightAware ADS-B
Thu 03:12:22 AM 51.4865 -1.1541 100° East 538 619 36,000  Level FlightAware ADS-B
Thu 03:12:52 AM 51.4745 -1.0343 99° East 539 620 36,000  Level FlightAware ADS-B
Thu 03:12:54 AM 51.4743 -1.0323 100° East 539 620 36,000  Level FlightAware ADS-B (EGDM)
Thu 03:13:23 AM 51.4628 -0.9152 99° East 538 619 36,000  Level FlightAware ADS-B
Thu 03:13:24 AM 51.4626 -0.9116 95° East 538 619 36,000  Level FlightAware ADS-B (EGDM)
Thu 03:13:53 AM 51.4511 -0.7964 99° East 538 619 36,000  Level FlightAware ADS-B
Thu 03:13:57 AM 51.4496 -0.7816 99° East 538 619 36,000  Level FlightAware ADS-B
Thu 03:14:28 AM 51.4376 -0.6606 99° East 537 618 36,000  Level FlightAware ADS-B
Thu 03:15:00 AM 51.4245 -0.5343 99° East 536 617 36,000  Level FlightAware ADS-B
Thu 03:15:30 AM 51.4133 -0.4271 99° East 535 616 36,000  Level FlightAware ADS-B
Thu 03:16:00 AM 51.3997 -0.2975 100° East 535 616 36,000  Level FlightAware ADS-B
Thu 03:16:02 AM 51.4005 -0.3060 279° West 535 616 36,000  Level FlightAware ADS-B
Thu 03:16:33 AM 51.3888 -0.1960 100° East 535 616 36,000  Level FlightAware ADS-B (EGLC / LCY)
Thu 03:17:04 AM 51.3730 -0.0494 100° East 534 615 36,000  Level FlightAware ADS-B
Thu 03:17:14 AM 51.3690 -0.0129 100° East 532 612 36,000  Level FlightAware ADS-B
Thu 03:17:19 AM 51.3677 -0.0010 100° East 532 612 36,000  Level FlightAware ADS-B
Thu 03:17:36 AM 51.3596 0.0725 100° East 533 613 36,000  Level FlightAware ADS-B
Thu 03:17:49 AM 51.3549 0.1151 100° East 533 613 36,000  Level FlightAware ADS-B
Thu 03:17:53 AM 51.3526 0.1375 100° East 532 612 36,000  Level FlightAware ADS-B (EGDM)
Thu 03:18:07 AM 51.3464 0.1927 100° East 532 612 36,000  Level FlightAware ADS-B
Thu 03:18:08 AM 51.3464 0.1927 North 531 611 36,000  Level FlightAware ADS-B
Thu 03:18:21 AM 51.3402 0.2487 100° East 531 611 36,000  Level FlightAware ADS-B
Thu 03:18:38 AM 51.3328 0.3152 100° East 531 611 36,000  Level FlightAware ADS-B
Thu 03:18:53 AM 51.3323 0.3192 101° East 531 611 36,000  Level FlightAware ADS-B
Thu 03:19:09 AM 51.3194 0.4349 100° East 532 612 36,000  Level FlightAware ADS-B
Thu 03:19:24 AM 51.3130 0.4917 100° East 532 612 36,000  Level FlightAware ADS-B (EGLC / LCY)
Thu 03:19:41 AM 51.3056 0.5564 100° East 533 613 36,000  Level FlightAware ADS-B
Thu 03:19:56 AM 51.2990 0.6152 100° East 533 613 36,000  Level FlightAware ADS-B
Thu 03:20:18 AM 51.2893 0.7005 100° East 533 613 36,000  Level FlightAware ADS-B
Thu 03:20:33 AM 51.2834 0.7510 101° East 533 613 36,000  Level FlightAware ADS-B
Thu 03:20:51 AM 51.2747 0.8259 100° East 532 612 36,000  Level FlightAware ADS-B
Thu 03:21:04 AM 51.2690 0.8760 100° East 533 613 36,000  Level FlightAware ADS-B
Thu 03:21:22 AM 51.2608 0.9472 100° East 533 613 36,000  Level FlightAware ADS-B
Thu 03:21:44 AM 51.2506 1.0334 101° East 534 615 36,000  Level FlightAware ADS-B
Thu 03:21:53 AM 51.2466 1.0684 100° East 534 615 36,000  Level FlightAware ADS-B
Thu 03:22:17 AM 51.2360 1.1572 101° East 534 615 36,000  Level FlightAware ADS-B
Thu 03:22:50 AM 51.2253 1.2470 101° East 535 616 36,000  Level FlightAware ADS-B
Thu 03:23:25 AM 51.1974 1.4578 101° East 492 566 36,000  Level FlightAware UK
Thu 03:23:25 AM 51.2144 1.3378 101° East 536 617 36,000  Level FlightAware ADS-B
Thu 03:23:55 AM 51.1777 1.5721 101° East 492 566 36,000  Level FlightAware UK
Thu 03:24:01 AM 51.1804 1.5550 101° East 534 615 36,000  Level FlightAware ADS-B
Thu 03:24:11 AM 51.1824 1.5429 285° West 537 618 36,000  Level FlightAware ADS-B
Thu 03:24:30 AM 51.1614 1.6692 105° East 535 616 36,000 429 Level FlightAware ADS-B
Thu 03:25:07 AM 51.1315 1.8481 105° East 496 571 36,400 391 Climbing FlightAware UK
Thu 03:25:16 AM 51.1339 1.8403 105° East 537 618 36,300 507 Descending FlightAware ADS-B
Thu 03:26:18 AM 51.1004 2.0786 103° East 535 616 37,000 452 Climbing FlightAware ADS-B
Thu 03:26:49 AM 51.0761 2.2415 103° East 492 566 37,000  Level FlightAware UK
Thu 03:26:56 AM 51.0790 2.2266 103° East 534 615 37,000  Level FlightAware ADS-B
Thu 03:27:30 AM 51.0591 2.3589 103° East 534 615 37,000  Level FlightAware ADS-B
Thu 03:28:00 AM 51.0422 2.4722 103° East 533 613 37,000  Level FlightAware ADS-B
Thu 03:28:37 AM 51.0132 2.6545 103° East 496 571 37,000  Level FlightAware UK
Thu 03:28:53 AM 51.0130 2.6640 103° East 531 611 37,000  Level FlightAware ADS-B
Thu 03:29:37 AM 50.9860 2.8380 104° East 530 610 37,000  Level FlightAware ADS-B
Thu 03:30:07 AM 50.9603 2.9951 104° East 492 566 37,000  Level FlightAware UK
Thu 03:30:23 AM 50.9600 3.0010 104° East 529 609 37,000  Level FlightAware ADS-B
Thu 03:30:54 AM 50.9410 3.1230 104° East 530 610 37,000  Level FlightAware ADS-B
Thu 03:31:30 AM 50.9190 3.2650 104° East 530 610 37,000  Level FlightAware ADS-B
Thu 03:32:09 AM 50.8960 3.4080 104° East 530 610 37,000  Level FlightAware ADS-B
Thu 03:32:49 AM 50.8625 3.6065 104° East 492 566 37,000  Level FlightAware UK
Thu 03:32:54 AM 50.8690 3.5780 104° East 531 611 37,000  Level FlightAware ADS-B
Thu 03:33:25 AM 50.8500 3.6950 104° East 532 612 37,000  Level FlightAware ADS-B
Thu 03:34:01 AM 50.8183 3.8785 104° East 494 568 37,000  Level FlightAware UK
Thu 03:34:03 AM 50.8260 3.8390 104° East 533 613 37,000  Level FlightAware ADS-B
Thu 03:34:40 AM 50.8030 3.9770 105° East 533 613 37,000  Level FlightAware ADS-B
Thu 03:35:19 AM 50.7689 4.1725 105° East 498 573 37,000  Level FlightAware UK
Thu 03:35:49 AM 50.7503 4.2858 104° East 496 571 37,000  Level FlightAware UK
Thu 03:35:50 AM 50.7590 4.2410 104° East 531 611 37,000  Level FlightAware ADS-B
Thu 03:36:20 AM 50.7314 4.3995 104° East 496 571 37,000  Level FlightAware UK
Thu 03:36:26 AM 50.7370 4.3710 104° East 531 611 37,000  Level FlightAware ADS-B
Thu 03:36:56 AM 50.7170 4.4900 105° East 530 610 37,000  Level FlightAware ADS-B
Thu 03:37:39 AM 50.6900 4.6520 105° East 530 610 37,000  Level FlightAware ADS-B
Thu 03:38:15 AM 50.6710 4.7620 105° East 530 610 37,000  Level FlightAware ADS-B
Thu 03:39:00 AM 50.6380 4.9470 106° East 529 609 37,000  Level FlightAware ADS-B
Thu 03:39:27 AM 50.6200 5.0440 106° East 527 606 37,000  Level FlightAware ADS-B
Thu 03:40:08 AM 50.5860 5.1920 110° East 527 606 37,000  Level FlightAware ADS-B
Thu 03:40:43 AM 50.5560 5.3240 110° East 526 605 37,000  Level FlightAware ADS-B
Thu 03:41:24 AM 50.5240 5.4630 110° East 525 604 37,000  Level FlightAware ADS-B
Thu 03:42:13 AM 50.4850 5.6410 109° East 526 605 37,000  Level FlightAware ADS-B
Thu 03:42:53 AM 50.4500 5.7890 110° East 526 605 37,000  Level FlightAware ADS-B
Thu 03:43:24 AM 50.4240 5.9000 110° East 527 606 37,000  Level FlightAware ADS-B
Thu 03:44:04 AM 50.3900 6.0400 111° Southeast 528 608 37,000  Level FlightAware ADS-B
Thu 03:44:37 AM 50.3610 6.1630 110° East 529 609 37,000  Level FlightAware ADS-B
Thu 03:45:41 AM 50.3070 6.3890 110° East 527 606 37,000  Level FlightAware ADS-B
Thu 03:46:10 AM 50.2820 6.4910 111° Southeast 528 608 37,000  Level FlightAware ADS-B
Thu 03:46:47 AM 50.2500 6.6230 111° Southeast 527 606 37,000  Level FlightAware ADS-B
Thu 03:47:25 AM 50.2180 6.7540 111° Southeast 527 606 37,000  Level FlightAware ADS-B
Thu 03:48:09 AM 50.1790 6.9130 111° Southeast 527 606 37,000  Level FlightAware ADS-B
Thu 03:48:50 AM 50.1420 7.0620 111° Southeast 526 605 37,000  Level FlightAware ADS-B
Thu 03:49:34 AM 50.1030 7.2180 111° Southeast 526 605 37,000  Level FlightAware ADS-B
Thu 03:50:11 AM 50.0720 7.3410 111° Southeast 527 606 37,000  Level FlightAware ADS-B
Thu 03:50:43 AM 50.0400 7.4590 113° Southeast 524 603 37,000  Level FlightAware ADS-B
Thu 03:51:13 AM 49.9970 7.5440 128° Southeast 509 586 37,000  Level FlightAware ADS-B
Thu 03:52:00 AM 49.9070 7.6440 144° Southeast 504 580 37,000  Level FlightAware ADS-B
Thu 03:52:28 AM 49.8540 7.7000 146° Southeast 503 579 37,000  Level FlightAware ADS-B
Thu 03:53:11 AM 49.7710 7.7890 145° Southeast 504 580 37,000  Level FlightAware ADS-B
Thu 03:53:54 AM 49.6920 7.8760 145° Southeast 505 581 37,000  Level FlightAware ADS-B
Thu 03:54:36 AM 49.6090 7.9690 144° Southeast 502 578 37,000  Level FlightAware ADS-B
Thu 03:55:19 AM 49.5270 8.0610 144° Southeast 504 580 37,000  Level FlightAware ADS-B
Thu 03:55:56 AM 49.4580 8.1370 144° Southeast 504 580 37,000  Level FlightAware ADS-B
Thu 03:56:55 AM 49.3470 8.2610 144° Southeast 503 579 37,000  Level FlightAware ADS-B
Thu 03:57:32 AM 49.2770 8.3380 144° Southeast 502 578 37,000  Level FlightAware ADS-B
Thu 03:58:00 AM 49.2240 8.3970 144° Southeast 502 578 37,000  Level FlightAware ADS-B
Thu 03:58:32 AM 49.1640 8.4630 144° Southeast 502 578 37,000  Level FlightAware ADS-B
Thu 03:59:09 AM 49.0940 8.5390 145° Southeast 500 575 37,000  Level FlightAware ADS-B
Thu 03:59:47 AM 49.0240 8.6160 144° Southeast 499 574 37,000  Level FlightAware ADS-B
Thu 04:00:25 AM 48.9520 8.6940 145° Southeast 496 571 37,000  Level FlightAware ADS-B
Thu 04:01:01 AM 48.8870 8.7650 144° Southeast 495 570 37,000  Level FlightAware ADS-B
Thu 04:01:32 AM 48.8290 8.8280 144° Southeast 495 570 37,000  Level FlightAware ADS-B
Thu 04:02:06 AM 48.7670 8.8940 145° Southeast 496 571 37,000  Level FlightAware ADS-B
Thu 04:02:47 AM 48.6900 8.9770 145° Southeast 497 572 37,000  Level FlightAware ADS-B
Thu 04:03:18 AM 48.6330 9.0380 145° Southeast 499 574 37,000  Level FlightAware ADS-B
Thu 04:03:57 AM 48.5590 9.1170 145° Southeast 499 574 37,000  Level FlightAware ADS-B
Thu 04:04:56 AM 48.4480 9.2350 145° Southeast 499 574 37,000  Level FlightAware ADS-B
Thu 04:05:28 AM 48.3880 9.2980 145° Southeast 497 572 37,000  Level FlightAware ADS-B
Thu 04:06:03 AM 48.3200 9.3700 145° Southeast 496 571 37,000  Level FlightAware ADS-B
Thu 04:06:44 AM 48.2420 9.4590 143° Southeast 499 574 37,000  Level FlightAware ADS-B
Thu 04:07:21 AM 48.1790 9.5400 139° Southeast 500 575 37,000  Level FlightAware ADS-B
Thu 04:07:54 AM 48.1220 9.6150 139° Southeast 499 574 37,000  Level FlightAware ADS-B
Thu 04:08:35 AM 48.0540 9.7040 139° Southeast 499 574 37,000  Level FlightAware ADS-B
Thu 04:09:10 AM 47.9890 9.7880 139° Southeast 498 573 37,000  Level FlightAware ADS-B
Thu 04:10:17 AM 47.8700 9.9380 140° Southeast 497 572 37,000  Level FlightAware ADS-B
Thu 04:10:58 AM 47.7970 10.0240 142° Southeast 492 566 37,000  Level FlightAware ADS-B
Thu 04:11:34 AM 47.7390 10.0890 143° Southeast 490 564 37,000  Level FlightAware ADS-B
Thu 04:12:04 AM 47.6810 10.1520 144° Southeast 490 564 37,000  Level FlightAware ADS-B
Thu 04:12:42 AM 47.6100 10.2310 143° Southeast 488 562 37,000  Level FlightAware ADS-B
Thu 04:13:12 AM 47.5570 10.2900 143° Southeast 487 560 37,000  Level FlightAware ADS-B
Thu 04:13:51 AM 47.4860 10.3670 144° Southeast 486 559 37,000  Level FlightAware ADS-B
Thu 04:14:28 AM 47.4150 10.4420 144° Southeast 481 554 37,000  Level FlightAware ADS-B
Thu 04:14:56 AM 47.3650 10.4860 149° Southeast 477 549 37,000  Level FlightAware ADS-B
Thu 04:15:38 AM 47.2840 10.5510 151° Southeast 477 549 37,000  Level FlightAware ADS-B
Thu 04:16:21 AM 47.2050 10.6230 148° Southeast 488 562 37,000  Level FlightAware ADS-B
Thu 04:17:33 AM 47.0870 10.7930 136° Southeast 494 568 37,000  Level FlightAware ADS-B
Thu 04:18:40 AM 46.9780 10.9560 134° Southeast 497 572 37,000  Level FlightAware ADS-B
Thu 04:19:25 AM 46.9040 11.0660 135° Southeast 498 573 37,000  Level FlightAware ADS-B
Thu 04:20:05 AM 46.8470 11.1520 134° Southeast 498 573 37,000  Level FlightAware ADS-B
Thu 04:20:47 AM 46.7730 11.2610 135° Southeast 498 573 37,000  Level FlightAware ADS-B
Thu 04:21:28 AM 46.7060 11.3600 135° Southeast 497 572 37,000  Level FlightAware ADS-B
Thu 04:21:58 AM 46.6580 11.4290 135° Southeast 497 572 37,000  Level FlightAware ADS-B
Thu 04:22:38 AM 46.5930 11.5240 135° Southeast 497 572 37,000  Level FlightAware ADS-B
Thu 04:23:12 AM 46.5380 11.6060 134° Southeast 499 574 37,000  Level FlightAware ADS-B
Thu 04:23:47 AM 46.4830 11.6850 135° Southeast 499 574 37,000  Level FlightAware ADS-B
Thu 04:24:54 AM 46.3720 11.8470 135° Southeast 497 572 37,000  Level FlightAware ADS-B
Thu 04:25:18 AM 46.3330 11.9020 136° Southeast 497 572 37,000  Level FlightAware ADS-B
Thu 04:26:06 AM 46.2560 12.0130 135° Southeast 496 571 37,000  Level FlightAware ADS-B
Thu 04:26:51 AM 46.1830 12.1180 135° Southeast 497 572 37,000  Level FlightAware ADS-B
Thu 04:27:34 AM 46.1110 12.2210 135° Southeast 497 572 37,000  Level FlightAware ADS-B
Thu 04:28:07 AM 46.0590 12.2960 135° Southeast 497 572 37,000  Level FlightAware ADS-B
Thu 04:28:43 AM 45.9980 12.3820 136° Southeast 497 572 37,000  Level FlightAware ADS-B
Thu 04:29:16 AM 45.9460 12.4550 136° Southeast 497 572 37,000  Level FlightAware ADS-B
Thu 04:29:53 AM 45.8830 12.5440 135° Southeast 499 574 37,000  Level FlightAware ADS-B
Thu 04:31:09 AM 45.7570 12.7200 136° Southeast 501 577 37,000  Level FlightAware ADS-B
Thu 04:31:43 AM 45.7010 12.7990 135° Southeast 502 578 37,000  Level FlightAware ADS-B
Thu 04:32:13 AM 45.6550 12.8620 136° Southeast 503 579 37,000  Level FlightAware ADS-B
Thu 04:32:50 AM 45.5890 12.9540 136° Southeast 505 581 37,000  Level FlightAware ADS-B
Thu 04:33:56 AM 45.4790 13.1060 136° Southeast 505 581 37,000  Level FlightAware ADS-B
Thu 04:34:32 AM 45.4170 13.1910 136° Southeast 504 580 37,000  Level FlightAware ADS-B
Thu 04:35:05 AM 45.3640 13.2640 136° Southeast 505 581 37,000  Level FlightAware ADS-B
Thu 04:35:41 AM 45.3030 13.3460 137° Southeast 504 580 37,000  Level FlightAware ADS-B
Thu 04:36:25 AM 45.2270 13.4510 136° Southeast 503 579 37,000  Level FlightAware ADS-B
Thu 04:37:06 AM 45.1580 13.5430 137° Southeast 500 575 37,000  Level FlightAware ADS-B
Thu 04:37:45 AM 45.0930 13.6310 136° Southeast 496 571 37,000  Level FlightAware ADS-B
Thu 04:38:14 AM 45.0460 13.6930 137° Southeast 495 570 37,000  Level FlightAware ADS-B
Thu 04:38:49 AM 44.9870 13.7710 137° Southeast 493 567 37,000  Level FlightAware ADS-B
Thu 04:39:25 AM 44.9270 13.8510 137° Southeast 492 566 37,000  Level FlightAware ADS-B
Thu 04:39:53 AM 44.8790 13.9130 138° Southeast 491 565 37,000  Level FlightAware ADS-B
Thu 04:40:28 AM 44.8210 13.9890 137° Southeast 491 565 37,000  Level FlightAware ADS-B
Thu 04:40:58 AM 44.7720 14.0530 137° Southeast 489 563 37,000  Level FlightAware ADS-B
Thu 04:41:47 AM 44.6920 14.1560 138° Southeast 484 557 37,000  Level FlightAware ADS-B
Thu 04:42:14 AM 44.6460 14.2150 138° Southeast 484 557 37,000  Level FlightAware ADS-B
Thu 04:42:55 AM 44.5780 14.3020 138° Southeast 482 555 37,000  Level FlightAware ADS-B
Thu 04:43:35 AM 44.5110 14.3870 138° Southeast 480 552 37,000  Level FlightAware ADS-B
Thu 04:44:18 AM 44.4390 14.4770 138° Southeast 480 552 37,000  Level FlightAware ADS-B
Thu 04:45:04 AM 44.3640 14.5710 138° Southeast 479 551 37,000  Level FlightAware ADS-B
Thu 04:45:39 AM 44.3060 14.6430 138° Southeast 481 554 37,000  Level FlightAware ADS-B
Thu 04:46:20 AM 44.2390 14.7260 138° Southeast 481 554 37,000  Level FlightAware ADS-B
Thu 04:46:56 AM 44.1770 14.8020 139° Southeast 483 556 37,000  Level FlightAware ADS-B
Thu 04:47:36 AM 44.1170 14.8910 133° Southeast 491 565 37,000  Level FlightAware ADS-B
Thu 04:47:59 AM 44.0890 14.9500 123° Southeast 491 565 37,000  Level FlightAware ADS-B
Thu 04:48:36 AM 44.0420 15.0470 124° Southeast 491 565 37,000  Level FlightAware ADS-B
Thu 04:49:18 AM 43.9890 15.1500 126° Southeast 490 564 37,000  Level FlightAware ADS-B
Thu 04:49:58 AM 43.9320 15.2600 126° Southeast 489 563 37,000  Level FlightAware ADS-B
Thu 04:50:33 AM 43.8880 15.3500 124° Southeast 490 564 37,000  Level FlightAware ADS-B
Thu 04:51:10 AM 43.8400 15.4450 125° Southeast 490 564 37,000  Level FlightAware ADS-B
Thu 04:51:49 AM 43.7900 15.5450 125° Southeast 490 564 37,000  Level FlightAware ADS-B
Thu 04:52:20 AM 43.7490 15.6250 125° Southeast 491 565 37,000  Level FlightAware ADS-B
Thu 04:53:06 AM 43.6920 15.7370 125° Southeast 491 565 37,000  Level FlightAware ADS-B
Thu 04:53:38 AM 43.6500 15.8200 125° Southeast 490 564 37,000  Level FlightAware ADS-B
Thu 04:54:12 AM 43.6030 15.9120 125° Southeast 490 564 37,000  Level FlightAware ADS-B
Thu 04:55:06 AM 43.5330 16.0500 125° Southeast 489 563 37,000  Level FlightAware ADS-B
Thu 04:55:42 AM 43.4860 16.1410 125° Southeast 489 563 37,000  Level FlightAware ADS-B
Thu 04:56:22 AM 43.4340 16.2420 125° Southeast 488 562 37,000  Level FlightAware ADS-B
Thu 04:57:02 AM 43.3830 16.3400 126° Southeast 489 563 37,000  Level FlightAware ADS-B
Thu 04:57:46 AM 43.3240 16.4550 125° Southeast 488 562 37,000  Level FlightAware ADS-B
Thu 04:58:22 AM 43.2760 16.5460 126° Southeast 486 559 37,000  Level FlightAware ADS-B
Thu 04:59:06 AM 43.2190 16.6560 125° Southeast 485 558 37,000  Level FlightAware ADS-B
Thu 05:00:00 AM 43.1500 16.7880 126° Southeast 484 557 37,000  Level FlightAware ADS-B
Thu 05:00:48 AM 43.0850 16.9120 126° Southeast 485 558 37,000  Level FlightAware ADS-B
Thu 05:01:30 AM 43.0320 17.0130 126° Southeast 484 557 37,000  Level FlightAware ADS-B
Thu 05:02:06 AM 42.9840 17.1030 126° Southeast 483 556 37,000  Level FlightAware ADS-B
Thu 05:02:46 AM 42.9330 17.2000 126° Southeast 482 555 37,000  Level FlightAware ADS-B
Thu 05:03:26 AM 42.8810 17.2970 126° Southeast 483 556 37,000  Level FlightAware ADS-B
Thu 05:03:58 AM 42.8370 17.3800 126° Southeast 483 556 37,000  Level FlightAware ADS-B
Thu 05:04:36 AM 42.7870 17.4740 126° Southeast 483 556 37,000  Level FlightAware ADS-B
Thu 05:05:24 AM 42.7260 17.5880 126° Southeast 483 556 37,000  Level FlightAware ADS-B
Thu 05:06:12 AM 42.6620 17.7060 126° Southeast 485 558 37,000  Level FlightAware ADS-B
Thu 05:06:51 AM 42.6090 17.8030 127° Southeast 485 558 37,000  Level FlightAware ADS-B
Thu 05:07:14 AM 42.5770 17.8630 126° Southeast 486 559 37,000  Level FlightAware ADS-B
Thu 05:08:04 AM 42.5100 17.9870 126° Southeast 487 560 37,000  Level FlightAware ADS-B
Thu 05:08:30 AM 42.4770 18.0470 127° Southeast 487 560 37,000  Level FlightAware ADS-B
Thu 05:09:19 AM 42.4110 18.1660 127° Southeast 489 563 37,000  Level FlightAware ADS-B
Thu 05:09:55 AM 42.3610 18.2580 126° Southeast 489 563 37,000  Level FlightAware ADS-B
Thu 05:10:31 AM 42.3130 18.3460 126° Southeast 490 564 37,000  Level FlightAware ADS-B
Thu 05:11:39 AM 42.2200 18.5130 127° Southeast 490 564 37,000  Level FlightAware ADS-B
Thu 05:12:16 AM 42.1700 18.6030 127° Southeast 490 564 37,000  Level FlightAware ADS-B
Thu 05:12:56 AM 42.1150 18.7020 127° Southeast 491 565 37,000  Level FlightAware ADS-B
Thu 05:13:40 AM 42.0550 18.8110 127° Southeast 492 566 37,000  Level FlightAware ADS-B
Thu 05:14:15 AM 42.0080 18.8930 128° Southeast 492 566 37,000  Level FlightAware ADS-B
Thu 05:14:47 AM 41.9640 18.9720 127° Southeast 493 567 37,000  Level FlightAware ADS-B
Thu 05:15:27 AM 41.9090 19.0700 127° Southeast 494 568 37,000  Level FlightAware ADS-B
Thu 05:16:03 AM 41.8580 19.1590 128° Southeast 496 571 37,000  Level FlightAware ADS-B
Thu 05:16:48 AM 41.7940 19.2670 128° Southeast 498 573 37,000  Level FlightAware ADS-B
Thu 05:17:28 AM 41.7260 19.3500 138° Southeast 499 574 37,000  Level FlightAware ADS-B
Thu 05:18:09 AM 41.6550 19.4310 140° Southeast 498 573 37,000  Level FlightAware ADS-B
Thu 05:19:16 AM 41.5370 19.5640 140° Southeast 497 572 37,000  Level FlightAware ADS-B
Thu 05:19:58 AM 41.4650 19.6460 140° Southeast 497 572 37,000  Level FlightAware ADS-B
Thu 05:20:30 AM 41.4090 19.7140 138° Southeast 496 571 37,000  Level FlightAware ADS-B
Thu 05:20:58 AM 41.3640 19.7750 134° Southeast 496 571 37,000  Level FlightAware ADS-B
Thu 05:21:41 AM 41.2930 19.8700 135° Southeast 495 570 37,000  Level FlightAware ADS-B
Thu 05:22:42 AM 41.1980 19.9990 134° Southeast 493 567 37,000  Level FlightAware ADS-B
Thu 05:23:25 AM 41.1260 20.0950 135° Southeast 493 567 37,000  Level FlightAware ADS-B
Thu 05:24:32 AM 41.0190 20.2370 135° Southeast 496 571 37,000  Level FlightAware ADS-B
Thu 05:25:11 AM 40.9550 20.3220 135° Southeast 497 572 37,000  Level FlightAware ADS-B
Thu 05:25:46 AM 40.8980 20.3970 135° Southeast 495 570 37,000  Level FlightAware ADS-B
Thu 05:26:20 AM 40.8440 20.4690 135° Southeast 494 568 37,000  Level FlightAware ADS-B
Thu 05:27:03 AM 40.7740 20.5600 135° Southeast 492 566 37,000  Level FlightAware ADS-B
Thu 05:27:53 AM 40.6960 20.6630 135° Southeast 490 564 37,000  Level FlightAware ADS-B
Thu 05:28:25 AM 40.6440 20.7320 135° Southeast 488 562 37,000  Level FlightAware ADS-B
Thu 05:29:02 AM 40.5830 20.8110 135° Southeast 487 560 37,000  Level FlightAware ADS-B
Thu 05:29:42 AM 40.5200 20.8920 136° Southeast 487 560 37,000  Level FlightAware ADS-B
Thu 05:30:30 AM 40.4380 20.9910 137° Southeast 487 560 37,000  Level FlightAware ADS-B
Thu 05:31:22 AM 40.3500 21.0920 139° Southeast 486 559 37,000  Level FlightAware ADS-B
Thu 05:31:58 AM 40.2890 21.1620 139° Southeast 486 559 37,000  Level FlightAware ADS-B
Thu 05:32:42 AM 40.2150 21.2460 139° Southeast 486 559 37,000  Level FlightAware ADS-B
Thu 05:33:26 AM 40.1390 21.3330 139° Southeast 487 560 37,000  Level FlightAware ADS-B
Thu 05:34:30 AM 40.0310 21.4560 139° Southeast 486 559 37,000  Level FlightAware ADS-B
Thu 05:35:10 AM 39.9640 21.5320 139° Southeast 486 559 37,000  Level FlightAware ADS-B
Thu 05:35:54 AM 39.8900 21.6160 139° Southeast 487 560 37,000  Level FlightAware ADS-B
Thu 05:36:34 AM 39.8200 21.6940 139° Southeast 487 560 37,000  Level FlightAware ADS-B
Thu 05:37:10 AM 39.7580 21.7630 139° Southeast 487 560 37,000  Level FlightAware ADS-B
Thu 05:37:54 AM 39.6820 21.8480 139° Southeast 487 560 37,000  Level FlightAware ADS-B
Thu 05:38:34 AM 39.6160 21.9230 139° Southeast 486 559 37,000  Level FlightAware ADS-B
Thu 05:39:22 AM 39.5330 22.0150 139° Southeast 486 559 37,000  Level FlightAware ADS-B
Thu 05:39:58 AM 39.4720 22.0830 139° Southeast 487 560 37,000  Level FlightAware ADS-B
Thu 05:40:46 AM 39.3890 22.1730 140° Southeast 485 558 37,000  Level FlightAware ADS-B
Thu 05:41:28 AM 39.3180 22.2520 139° Southeast 484 557 37,000  Level FlightAware ADS-B
Thu 05:42:08 AM 39.2500 22.3260 140° Southeast 484 557 37,000  Level FlightAware ADS-B
Thu 05:42:50 AM 39.1790 22.4050 139° Southeast 484 557 37,000  Level FlightAware ADS-B
Thu 05:43:31 AM 39.1110 22.4790 140° Southeast 483 556 37,000  Level FlightAware ADS-B
Thu 05:44:12 AM 39.0380 22.5580 140° Southeast 483 556 37,000  Level FlightAware ADS-B
Thu 05:44:48 AM 38.9770 22.6240 140° Southeast 483 556 37,000  Level FlightAware ADS-B
Thu 05:45:32 AM 38.9020 22.7050 140° Southeast 482 555 37,000  Level FlightAware ADS-B
Thu 05:46:16 AM 38.8260 22.7870 140° Southeast 483 556 37,000  Level FlightAware ADS-B
Thu 05:47:06 AM 38.7410 22.8780 140° Southeast 482 555 37,000  Level FlightAware ADS-B
Thu 05:47:50 AM 38.6640 22.9620 140° Southeast 483 556 37,000  Level FlightAware ADS-B
Thu 05:48:26 AM 38.6050 23.0250 140° Southeast 482 555 37,000  Level FlightAware ADS-B
Thu 05:49:09 AM 38.5280 23.1060 141° Southeast 483 556 37,000  Level FlightAware ADS-B
Thu 05:49:37 AM 38.4820 23.1560 140° Southeast 484 557 37,000  Level FlightAware ADS-B
Thu 05:50:09 AM 38.4250 23.2160 140° Southeast 485 558 37,000  Level FlightAware ADS-B
Thu 05:50:50 AM 38.3570 23.2880 140° Southeast 485 558 37,000  Level FlightAware ADS-B
Thu 05:51:27 AM 38.2920 23.3570 140° Southeast 487 560 37,000  Level FlightAware ADS-B
Thu 05:52:04 AM 38.2280 23.4260 140° Southeast 487 560 37,000  Level FlightAware ADS-B
Thu 05:52:44 AM 38.1680 23.5130 131° Southeast 490 564 37,000  Level FlightAware ADS-B
Thu 05:53:27 AM 38.1150 23.6190 122° Southeast 492 566 37,000  Level FlightAware ADS-B
Thu 05:54:15 AM 38.0580 23.7360 122° Southeast 491 565 37,000  Level FlightAware ADS-B
Thu 05:55:20 AM 37.9800 23.8950 122° Southeast 490 564 37,000  Level FlightAware ADS-B
Thu 05:55:56 AM 37.9370 23.9800 123° Southeast 489 563 37,000  Level FlightAware ADS-B
Thu 05:56:45 AM 37.8760 24.0970 123° Southeast 489 563 37,000  Level FlightAware ADS-B
Thu 05:57:18 AM 37.8350 24.1760 123° Southeast 488 562 37,000  Level FlightAware ADS-B
Thu 05:58:01 AM 37.7820 24.2790 123° Southeast 488 562 37,000  Level FlightAware ADS-B
Thu 05:58:38 AM 37.7360 24.3690 123° Southeast 488 562 37,000  Level FlightAware ADS-B
Thu 05:59:12 AM 37.6930 24.4510 124° Southeast 487 560 37,000  Level FlightAware ADS-B
Thu 05:59:50 AM 37.6470 24.5390 123° Southeast 488 562 37,000  Level FlightAware ADS-B
Thu 06:00:27 AM 37.6030 24.6250 123° Southeast 488 562 37,000  Level FlightAware ADS-B
Thu 06:01:12 AM 37.5450 24.7350 124° Southeast 485 558 37,000  Level FlightAware ADS-B
Thu 06:01:52 AM 37.4950 24.8300 124° Southeast 485 558 37,000  Level FlightAware ADS-B
Thu 06:02:26 AM 37.4540 24.9100 123° Southeast 485 558 37,000  Level FlightAware ADS-B
Thu 06:03:11 AM 37.3980 25.0170 123° Southeast 485 558 37,000  Level FlightAware ADS-B
Thu 06:03:50 AM 37.3490 25.1080 124° Southeast 484 557 37,000  Level FlightAware ADS-B
Thu 06:04:29 AM 37.3030 25.1950 124° Southeast 483 556 37,000  Level FlightAware ADS-B
Thu 06:05:32 AM 37.2230 25.3470 123° Southeast 482 555 37,000  Level FlightAware ADS-B
Thu 06:06:00 AM 37.1880 25.4110 124° Southeast 482 555 37,000  Level FlightAware ADS-B
Thu 06:06:42 AM 37.1370 25.5080 123° Southeast 481 554 37,000  Level FlightAware ADS-B
Thu 06:07:33 AM 37.0750 25.6250 124° Southeast 482 555 37,000  Level FlightAware ADS-B
Thu 06:08:11 AM 37.0260 25.7150 124° Southeast 482 555 37,000  Level FlightAware ADS-B
Thu 06:09:05 AM 36.9590 25.8400 124° Southeast 482 555 37,000  Level FlightAware ADS-B
Thu 06:09:36 AM 36.9220 25.9090 124° Southeast 482 555 37,000  Level FlightAware ADS-B
Thu 06:10:24 AM 36.8600 26.0230 124° Southeast 482 555 37,000  Level FlightAware ADS-B
Thu 06:11:06 AM 36.8070 26.1210 124° Southeast 483 556 37,000  Level FlightAware ADS-B
Thu 06:11:38 AM 36.7680 26.1940 124° Southeast 483 556 37,000  Level FlightAware ADS-B
Thu 06:12:18 AM 36.7170 26.2870 124° Southeast 483 556 37,000  Level FlightAware ADS-B
Thu 06:12:54 AM 36.6730 26.3680 124° Southeast 484 557 37,000  Level FlightAware ADS-B
Thu 06:13:42 AM 36.6120 26.4800 124° Southeast 485 558 37,000  Level FlightAware ADS-B
Thu 06:14:22 AM 36.5610 26.5730 124° Southeast 486 559 37,000  Level FlightAware ADS-B
Thu 06:14:56 AM 36.5180 26.6510 124° Southeast 487 560 37,000  Level FlightAware ADS-B
Thu 06:16:14 AM 36.4190 26.8310 124° Southeast 487 560 37,000  Level FlightAware ADS-B
Thu 06:16:44 AM 36.3800 26.9010 125° Southeast 488 562 37,000  Level FlightAware ADS-B
Thu 06:17:57 AM 36.2950 27.0690 122° Southeast 489 563 37,000  Level FlightAware ADS-B
Thu 06:18:40 AM 36.2530 27.1590 120° Southeast 490 564 37,000  Level FlightAware ADS-B
Thu 06:19:23 AM 36.1940 27.2800 121° Southeast 491 565 37,000  Level FlightAware ADS-B
Thu 06:20:00 AM 36.1530 27.3690 120° Southeast 490 564 37,000  Level FlightAware ADS-B
Thu 06:20:55 AM 36.1050 27.5170 112° Southeast 492 566 37,000  Level FlightAware ADS-B
Thu 06:21:31 AM 36.0760 27.6100 111° Southeast 493 567 37,000  Level FlightAware ADS-B
Thu 06:22:11 AM 36.0430 27.7140 111° Southeast 493 567 37,000  Level FlightAware ADS-B
Thu 06:23:01 AM 35.9860 27.8380 120° Southeast 493 567 37,000  Level FlightAware ADS-B
Thu 06:23:35 AM 35.9440 27.9180 123° Southeast 494 568 37,000  Level FlightAware ADS-B
Thu 06:24:11 AM 35.9000 28.0030 123° Southeast 496 571 37,000  Level FlightAware ADS-B
Thu 06:25:03 AM 35.8370 28.1280 122° Southeast 497 572 37,000  Level FlightAware ADS-B
Thu 06:25:39 AM 35.7940 28.2130 122° Southeast 498 573 37,000  Level FlightAware ADS-B
Thu 06:26:11 AM 35.7540 28.2920 122° Southeast 499 574 37,000  Level FlightAware ADS-B
Thu 06:26:58 AM 35.6990 28.4020 122° Southeast 500 575 37,000  Level FlightAware ADS-B
Thu 06:27:27 AM 35.6610 28.4760 122° Southeast 499 574 37,000  Level FlightAware ADS-B
Thu 06:27:59 AM 35.6220 28.5520 122° Southeast 499 574 37,000  Level FlightAware ADS-B
Thu 06:28:39 AM 35.5720 28.6480 123° Southeast 499 574 37,000  Level FlightAware ADS-B
Thu 06:29:13 AM 35.5300 28.7300 122° Southeast 500 575 37,000  Level FlightAware ADS-B
Thu 06:29:51 AM 35.4820 28.8210 123° Southeast 499 574 37,000  Level FlightAware ADS-B
Thu 06:30:31 AM 35.4340 28.9140 122° Southeast 500 575 37,000  Level FlightAware ADS-B
Thu 06:31:24 AM 35.3670 29.0420 123° Southeast 501 577 37,000  Level FlightAware ADS-B
Thu 06:32:04 AM 35.3170 29.1380 123° Southeast 502 578 37,000  Level FlightAware ADS-B
Thu 06:32:40 AM 35.2710 29.2250 123° Southeast 503 579 37,000  Level FlightAware ADS-B
Thu 06:33:12 AM 35.2310 29.3020 122° Southeast 505 581 37,000  Level FlightAware ADS-B
Thu 06:33:48 AM 35.1860 29.3860 123° Southeast 505 581 37,000  Level FlightAware ADS-B
Thu 06:34:30 AM 35.1410 29.4730 122° Southeast 505 581 37,000  Level FlightAware ADS-B
Thu 06:34:54 AM 35.1160 29.5230 121° Southeast 505 581 37,000  Level FlightAware ADS-B
Thu 06:35:42 AM 35.0660 29.6220 122° Southeast 505 581 37,000  Level FlightAware ADS-B
Thu 06:36:18 AM 35.0280 29.6960 122° Southeast 505 581 37,000  Level FlightAware ADS-B
Thu 06:37:09 AM 34.9290 29.8700 125° Southeast 506 582 37,000  Level FlightAware ADS-B
Thu 06:37:50 AM 34.8760 29.9670 124° Southeast 507 583 37,000  Level FlightAware ADS-B
Thu 06:38:20 AM 34.8360 30.0410 123° Southeast 508 585 37,000  Level FlightAware ADS-B
Thu 06:39:02 AM 34.7880 30.1310 123° Southeast 508 585 37,000  Level FlightAware ADS-B
Thu 06:39:31 AM 34.7430 30.2130 124° Southeast 509 586 37,000  Level FlightAware ADS-B
Thu 06:40:16 AM 34.6850 30.3200 123° Southeast 509 586 37,000  Level FlightAware ADS-B
Thu 06:40:56 AM 34.6340 30.4140 123° Southeast 509 586 37,000  Level FlightAware ADS-B
Thu 06:41:38 AM 34.5830 30.5070 124° Southeast 510 587 37,000  Level FlightAware ADS-B
Thu 06:42:13 AM 34.5340 30.5960 124° Southeast 511 588 37,000  Level FlightAware ADS-B
Thu 06:43:06 AM 34.4630 30.7250 124° Southeast 512 589 37,000  Level FlightAware ADS-B
Thu 06:43:50 AM 34.4030 30.8340 124° Southeast 519 597 37,000  Level FlightAware ADS-B
Thu 06:44:36 AM 34.3420 30.9440 124° Southeast 519 597 37,000  Level FlightAware ADS-B
Thu 06:45:11 AM 34.2970 31.0250 124° Southeast 521 600 37,000  Level FlightAware ADS-B
Thu 06:46:02 AM 34.2260 31.1520 124° Southeast 523 602 37,000  Level FlightAware ADS-B
Thu 06:46:53 AM 34.1570 31.2750 124° Southeast 524 603 37,000  Level FlightAware ADS-B
Thu 06:47:37 AM 34.0980 31.3800 124° Southeast 525 604 37,000  Level FlightAware ADS-B
Thu 06:48:17 AM 34.0410 31.4810 124° Southeast 521 600 37,000  Level FlightAware ADS-B
Thu 06:49:02 AM 33.9810 31.5890 124° Southeast 522 601 37,000  Level FlightAware ADS-B
Thu 06:49:37 AM 33.9320 31.6740 125° Southeast 521 600 37,000  Level FlightAware ADS-B
Thu 06:50:37 AM 33.8500 31.8190 124° Southeast 522 601 37,000  Level FlightAware ADS-B
Thu 06:51:28 AM 33.7800 31.9420 124° Southeast 523 602 37,000  Level FlightAware ADS-B
Thu 06:52:07 AM 33.7280 32.0340 124° Southeast 523 602 37,000  Level FlightAware ADS-B
Thu 06:52:59 AM 33.6650 32.1570 122° Southeast 531 611 37,000  Level FlightAware ADS-B
Thu 06:53:38 AM 33.6310 32.2810 108° East 539 620 37,000  Level FlightAware ADS-B
Thu 06:54:18 AM 33.5960 32.3900 111° Southeast 540 621 37,000  Level FlightAware ADS-B
Thu 06:55:09 AM 33.5500 32.5350 111° Southeast 542 624 37,000 -505 Level FlightAware ADS-B
Thu 06:56:05 AM 33.5000 32.6950 111° Southeast 535 616 36,100 -978 Descending FlightAware ADS-B
Thu 06:56:41 AM 33.4700 32.7880 111° Southeast 533 613 35,500 -1,309 Descending FlightAware ADS-B
Thu 06:57:00 AM 33.4520 32.8440 111° Southeast 531 611 34,900 -1,778 Descending FlightAware ADS-B
Thu 06:58:02 AM 33.3900 33.0050 115° Southeast 508 585 33,100 -1,922 Descending FlightAware ADS-B
Thu 06:58:43 AM 33.3340 33.0890 129° Southeast 494 568 31,600 -2,197 Descending FlightAware ADS-B
Thu 06:59:13 AM 33.2840 33.1520 134° Southeast 486 559 30,500 -2,083 Descending FlightAware ADS-B
Thu 06:59:55 AM 33.2180 33.2340 134° Southeast 474 545 29,100 -2,074 Descending FlightAware ADS-B
Thu 07:00:34 AM 33.1600 33.3070 133° Southeast 463 533 27,700 -2,137 Descending FlightAware ADS-B
Thu 07:01:08 AM 33.1090 33.3700 134° Southeast 452 520 26,500 -2,132 Descending FlightAware ADS-B
Thu 07:01:50 AM 33.0480 33.4460 134° Southeast 442 509 25,000 -2,071 Descending FlightAware ADS-B
Thu 07:02:32 AM 32.9910 33.5170 134° Southeast 429 494 23,600 -2,385 Descending FlightAware ADS-B
Thu 07:03:08 AM 32.9410 33.5790 134° Southeast 429 494 21,900 -2,602 Descending FlightAware ADS-B
Thu 07:03:55 AM 32.8790 33.6560 134° Southeast 422 486 20,000 -2,414 Descending FlightAware ADS-B
Thu 07:04:35 AM 32.8230 33.7250 134° Southeast 412 474 18,400 -2,289 Descending FlightAware ADS-B
Thu 07:05:11 AM 32.7760 33.7820 134° Southeast 403 464 17,100 -2,206 Descending FlightAware ADS-B
Thu 07:05:43 AM 32.7330 33.8350 134° Southeast 396 456 15,900 -2,148 Descending FlightAware ADS-B
Thu 07:06:32 AM 32.6730 33.9090 134° Southeast 385 443 14,200 -2,138 Descending FlightAware ADS-B
Thu 07:07:10 AM 32.6260 33.9670 134° Southeast 377 434 12,800 -2,077 Descending FlightAware ADS-B
Thu 07:07:50 AM 32.5780 34.0260 134° Southeast 369 425 11,500 -1,920 Descending FlightAware ADS-B
Thu 07:08:25 AM 32.5370 34.0750 135° Southeast 361 415 10,400 -1,527 Descending FlightAware ADS-B
Thu 07:08:45 AM 32.5150 34.1020 134° Southeast 351 404 10,100 -300 Descending FlightAware ADS-B
Thu 07:09:25 AM 32.4780 34.1500 132° Southeast 351 404 10,100 -162 Level FlightAware ADS-B
Thu 07:09:59 AM 32.4400 34.1920 137° Southeast 289 333 9,900 -714 Descending FlightAware ADS-B
Thu 07:10:49 AM 32.3930 34.2470 135° Southeast 297 342 9,100 -695 Descending FlightAware ADS-B
Thu 07:11:34 AM 32.3500 34.2960 136° Southeast 298 343 8,800 -565 Descending FlightAware ADS-B
Thu 07:12:14 AM 32.3130 34.3400 135° Southeast 295 339 8,300 -1,200 Descending FlightAware ADS-B
Thu 07:12:54 AM 32.2680 34.3920 136° Southeast 291 335 7,200 -1,425 Descending FlightAware ADS-B
Thu 07:13:34 AM 32.2340 34.4350 133° Southeast 286 329 6,400 -1,200 Descending FlightAware ADS-B
Thu 07:13:54 AM 32.2200 34.4600 123° Southeast 283 326 6,000 -1,091 Descending FlightAware ADS-B
Thu 07:14:29 AM 32.1970 34.5050 121° Southeast 283 326 5,400 -600 Descending FlightAware ADS-B
Thu 07:15:34 AM 32.1550 34.5850 122° Southeast 256 295 5,000 -267 Descending FlightAware ADS-B
Thu 07:15:59 AM 32.1390 34.6140 123° Southeast 254 292 5,000  Level FlightAware ADS-B
Thu 07:16:19 AM 32.1260 34.6380 123° Southeast 254 292 5,000  Level FlightAware ADS-B
Thu 07:17:20 AM 32.0900 34.7020 124° Southeast 231 266 5,000  Level FlightAware ADS-B
Thu 07:17:45 AM 32.0750 34.7280 124° Southeast 214 246 5,000 -179 Level FlightAware ADS-B
Thu 07:18:27 AM 32.0510 34.7600 132° Southeast 199 229 4,800 -304 Descending FlightAware ADS-B
Thu 07:19:04 AM 32.0270 34.7880 135° Southeast 197 227 4,600 -545 Descending FlightAware ADS-B
Thu 07:19:44 AM 31.9990 34.8190 137° Southeast 194 223 4,100 -682 Descending FlightAware ADS-B
Thu 07:20:32 AM 31.9710 34.8510 136° Southeast 194 223 3,600 -1,055 Descending FlightAware ADS-B
Thu 07:21:15 AM 31.9870 34.8960 67° East 177 204 2,500 -1,317 Descending FlightAware ADS-B
Thu 07:21:54 AM 32.0050 34.9300 58° Northeast 164 189 1,800 -1,000 Descending FlightAware ADS-B
Thu 07:22:45 AM 32.0330 34.9130 333° Northwest 156 180 1,000 -632 Descending FlightAware ADS-B
Thu 07:23:10 AM 32.0370 34.8960 286° West 156 180 1,000  Level FlightAware ADS-B

Login

Don't have an account? Register now (free) for customized features, flight alerts, and more!